<?xml version="1.0" encoding="UTF-8" standalone="no" ?>
<gpx xmlns="http://www.topografix.com/GPX/1/1" xmlns:xsi="http://www.w3.org/2001/XMLSchema-instance" xsi:schemaLocation="http://www.topografix.com/GPX/1/1 http://www.topografix.com/GPX/1/1/gpx.xsd" version="1.1" creator="VisuGPX - https://www.visugpx.com">
  <metadata>
    <name>Rando 1er novembre St Jean de la Riviere</name>
    <desc><![CDATA[Nom: sam. 01/nov./2014 08:54:49
Points: 1167 points.
Distance : 14,489 km.
Durée: 06:46:56
Moy. Globale: 2,1 km./heure
Vitesse Max.: 16,6 km./heure
Altitude Maximale: 1013,5 m.
Altitude Minimale: 291,5 m.
Date de : samedi 1 novembre 2014
Heure Départ: 08:54:49
]]></desc>
  </metadata>
  <trk>
    <name><![CDATA[sam. 01/nov./2014 08:54:49]]></name>
    <trkseg>
      <trkpt lat="43.94088" lon="7.28388">
        <ele>334.5</ele>
        <time>2014-11-01T07:54:49Z</time>
      </trkpt>
      <trkpt lat="43.94089" lon="7.2839">
        <ele>335.5</ele>
        <time>2014-11-01T07:54:50Z</time>
      </trkpt>
      <trkpt lat="43.94087" lon="7.28393">
        <ele>337.5</ele>
        <time>2014-11-01T07:54:51Z</time>
      </trkpt>
      <trkpt lat="43.94088" lon="7.28414">
        <ele>347.5</ele>
        <time>2014-11-01T07:55:27Z</time>
      </trkpt>
      <trkpt lat="43.94095" lon="7.28431">
        <ele>348.5</ele>
        <time>2014-11-01T07:55:48Z</time>
      </trkpt>
      <trkpt lat="43.94094" lon="7.28452">
        <ele>352.5</ele>
        <time>2014-11-01T07:56:04Z</time>
      </trkpt>
      <trkpt lat="43.94091" lon="7.28472">
        <ele>352.5</ele>
        <time>2014-11-01T07:56:19Z</time>
      </trkpt>
      <trkpt lat="43.94101" lon="7.28487">
        <ele>350.5</ele>
        <time>2014-11-01T07:56:34Z</time>
      </trkpt>
      <trkpt lat="43.94106" lon="7.28506">
        <ele>356.5</ele>
        <time>2014-11-01T07:56:52Z</time>
      </trkpt>
      <trkpt lat="43.94099" lon="7.28524">
        <ele>364.5</ele>
        <time>2014-11-01T07:57:07Z</time>
      </trkpt>
      <trkpt lat="43.94096" lon="7.28545">
        <ele>371.5</ele>
        <time>2014-11-01T07:57:25Z</time>
      </trkpt>
      <trkpt lat="43.941" lon="7.28566">
        <ele>371.5</ele>
        <time>2014-11-01T07:57:44Z</time>
      </trkpt>
      <trkpt lat="43.94098" lon="7.28586">
        <ele>373.5</ele>
        <time>2014-11-01T07:57:59Z</time>
      </trkpt>
      <trkpt lat="43.94089" lon="7.28602">
        <ele>376.5</ele>
        <time>2014-11-01T07:58:16Z</time>
      </trkpt>
      <trkpt lat="43.94089" lon="7.28609">
        <ele>376.5</ele>
        <time>2014-11-01T07:58:30Z</time>
      </trkpt>
      <trkpt lat="43.94075" lon="7.28603">
        <ele>368.5</ele>
        <time>2014-11-01T07:59:21Z</time>
      </trkpt>
      <trkpt lat="43.94069" lon="7.28603">
        <ele>369.5</ele>
        <time>2014-11-01T07:59:43Z</time>
      </trkpt>
      <trkpt lat="43.94055" lon="7.28597">
        <ele>364.5</ele>
        <time>2014-11-01T07:59:53Z</time>
      </trkpt>
      <trkpt lat="43.94036" lon="7.28593">
        <ele>359.5</ele>
        <time>2014-11-01T08:00:05Z</time>
      </trkpt>
      <trkpt lat="43.94022" lon="7.28591">
        <ele>363.5</ele>
        <time>2014-11-01T08:00:12Z</time>
      </trkpt>
      <trkpt lat="43.94023" lon="7.28588">
        <ele>363.5</ele>
        <time>2014-11-01T08:00:13Z</time>
      </trkpt>
      <trkpt lat="43.94011" lon="7.28593">
        <ele>358.5</ele>
        <time>2014-11-01T08:00:16Z</time>
      </trkpt>
      <trkpt lat="43.94004" lon="7.28584">
        <ele>358.5</ele>
        <time>2014-11-01T08:00:25Z</time>
      </trkpt>
      <trkpt lat="43.94001" lon="7.2858">
        <ele>360.5</ele>
        <time>2014-11-01T08:00:31Z</time>
      </trkpt>
      <trkpt lat="43.93987" lon="7.28572">
        <ele>365.5</ele>
        <time>2014-11-01T08:00:47Z</time>
      </trkpt>
      <trkpt lat="43.93985" lon="7.2857">
        <ele>364.5</ele>
        <time>2014-11-01T08:00:50Z</time>
      </trkpt>
      <trkpt lat="43.93982" lon="7.2857">
        <ele>364.5</ele>
        <time>2014-11-01T08:00:52Z</time>
      </trkpt>
      <trkpt lat="43.93975" lon="7.28566">
        <ele>370.5</ele>
        <time>2014-11-01T08:01:03Z</time>
      </trkpt>
      <trkpt lat="43.93973" lon="7.28567">
        <ele>370.5</ele>
        <time>2014-11-01T08:01:17Z</time>
      </trkpt>
      <trkpt lat="43.93958" lon="7.2856">
        <ele>367.5</ele>
        <time>2014-11-01T08:01:34Z</time>
      </trkpt>
      <trkpt lat="43.93943" lon="7.28556">
        <ele>375.5</ele>
        <time>2014-11-01T08:01:42Z</time>
      </trkpt>
      <trkpt lat="43.9393" lon="7.28555">
        <ele>385.5</ele>
        <time>2014-11-01T08:01:53Z</time>
      </trkpt>
      <trkpt lat="43.93922" lon="7.28552">
        <ele>386.5</ele>
        <time>2014-11-01T08:02:02Z</time>
      </trkpt>
      <trkpt lat="43.93923" lon="7.28554">
        <ele>386.5</ele>
        <time>2014-11-01T08:02:05Z</time>
      </trkpt>
      <trkpt lat="43.93924" lon="7.28553">
        <ele>387.5</ele>
        <time>2014-11-01T08:02:12Z</time>
      </trkpt>
      <trkpt lat="43.9391" lon="7.2856">
        <ele>395.5</ele>
        <time>2014-11-01T08:02:51Z</time>
      </trkpt>
      <trkpt lat="43.93895" lon="7.28563">
        <ele>397.5</ele>
        <time>2014-11-01T08:02:59Z</time>
      </trkpt>
      <trkpt lat="43.93881" lon="7.28569">
        <ele>399.5</ele>
        <time>2014-11-01T08:03:23Z</time>
      </trkpt>
      <trkpt lat="43.93878" lon="7.2857">
        <ele>401.5</ele>
        <time>2014-11-01T08:03:46Z</time>
      </trkpt>
      <trkpt lat="43.93863" lon="7.28575">
        <ele>402.5</ele>
        <time>2014-11-01T08:04:03Z</time>
      </trkpt>
      <trkpt lat="43.93848" lon="7.28582">
        <ele>406.5</ele>
        <time>2014-11-01T08:04:17Z</time>
      </trkpt>
      <trkpt lat="43.93847" lon="7.28584">
        <ele>407.5</ele>
        <time>2014-11-01T08:04:19Z</time>
      </trkpt>
      <trkpt lat="43.93838" lon="7.28576">
        <ele>414.5</ele>
        <time>2014-11-01T08:04:26Z</time>
      </trkpt>
      <trkpt lat="43.93832" lon="7.28578">
        <ele>415.5</ele>
        <time>2014-11-01T08:04:30Z</time>
      </trkpt>
      <trkpt lat="43.93827" lon="7.28574">
        <ele>408.5</ele>
        <time>2014-11-01T08:04:40Z</time>
      </trkpt>
      <trkpt lat="43.93821" lon="7.28576">
        <ele>411.5</ele>
        <time>2014-11-01T08:04:46Z</time>
      </trkpt>
      <trkpt lat="43.93807" lon="7.2857">
        <ele>424.5</ele>
        <time>2014-11-01T08:05:14Z</time>
      </trkpt>
      <trkpt lat="43.93807" lon="7.28571">
        <ele>424.5</ele>
        <time>2014-11-01T08:05:17Z</time>
      </trkpt>
      <trkpt lat="43.93786" lon="7.28578">
        <ele>433.5</ele>
        <time>2014-11-01T08:06:44Z</time>
      </trkpt>
      <trkpt lat="43.93771" lon="7.28585">
        <ele>436.5</ele>
        <time>2014-11-01T08:06:47Z</time>
      </trkpt>
      <trkpt lat="43.93772" lon="7.2859">
        <ele>432.5</ele>
        <time>2014-11-01T08:06:50Z</time>
      </trkpt>
      <trkpt lat="43.93765" lon="7.28591">
        <ele>432.5</ele>
        <time>2014-11-01T08:06:56Z</time>
      </trkpt>
      <trkpt lat="43.93765" lon="7.28592">
        <ele>433.5</ele>
        <time>2014-11-01T08:06:57Z</time>
      </trkpt>
      <trkpt lat="43.93765" lon="7.28593">
        <ele>433.5</ele>
        <time>2014-11-01T08:07:00Z</time>
      </trkpt>
      <trkpt lat="43.93763" lon="7.28592">
        <ele>436.5</ele>
        <time>2014-11-01T08:07:35Z</time>
      </trkpt>
      <trkpt lat="43.93763" lon="7.28592">
        <ele>436.5</ele>
        <time>2014-11-01T08:07:36Z</time>
      </trkpt>
      <trkpt lat="43.93749" lon="7.2861">
        <ele>442.5</ele>
        <time>2014-11-01T08:08:19Z</time>
      </trkpt>
      <trkpt lat="43.93738" lon="7.28623">
        <ele>442.5</ele>
        <time>2014-11-01T08:08:22Z</time>
      </trkpt>
      <trkpt lat="43.93723" lon="7.28632">
        <ele>448.5</ele>
        <time>2014-11-01T08:08:30Z</time>
      </trkpt>
      <trkpt lat="43.93722" lon="7.28631">
        <ele>449.5</ele>
        <time>2014-11-01T08:08:31Z</time>
      </trkpt>
      <trkpt lat="43.93723" lon="7.28641">
        <ele>443.5</ele>
        <time>2014-11-01T08:08:35Z</time>
      </trkpt>
      <trkpt lat="43.93722" lon="7.28641">
        <ele>444.5</ele>
        <time>2014-11-01T08:08:36Z</time>
      </trkpt>
      <trkpt lat="43.93721" lon="7.28642">
        <ele>445.5</ele>
        <time>2014-11-01T08:08:39Z</time>
      </trkpt>
      <trkpt lat="43.93717" lon="7.28644">
        <ele>445.5</ele>
        <time>2014-11-01T08:08:45Z</time>
      </trkpt>
      <trkpt lat="43.93717" lon="7.28644">
        <ele>446.5</ele>
        <time>2014-11-01T08:08:46Z</time>
      </trkpt>
      <trkpt lat="43.93716" lon="7.28645">
        <ele>446.5</ele>
        <time>2014-11-01T08:08:47Z</time>
      </trkpt>
      <trkpt lat="43.937" lon="7.28645">
        <ele>451.5</ele>
        <time>2014-11-01T08:14:41Z</time>
      </trkpt>
      <trkpt lat="43.93686" lon="7.28639">
        <ele>461.5</ele>
        <time>2014-11-01T08:14:42Z</time>
      </trkpt>
      <trkpt lat="43.93672" lon="7.28635">
        <ele>467.5</ele>
        <time>2014-11-01T08:14:44Z</time>
      </trkpt>
      <trkpt lat="43.93656" lon="7.28635">
        <ele>474.5</ele>
        <time>2014-11-01T08:14:47Z</time>
      </trkpt>
      <trkpt lat="43.93657" lon="7.2863">
        <ele>474.5</ele>
        <time>2014-11-01T08:14:48Z</time>
      </trkpt>
      <trkpt lat="43.93642" lon="7.28632">
        <ele>480.5</ele>
        <time>2014-11-01T08:14:52Z</time>
      </trkpt>
      <trkpt lat="43.93643" lon="7.28632">
        <ele>470.5</ele>
        <time>2014-11-01T08:14:54Z</time>
      </trkpt>
      <trkpt lat="43.93643" lon="7.28634">
        <ele>471.5</ele>
        <time>2014-11-01T08:14:55Z</time>
      </trkpt>
      <trkpt lat="43.9364" lon="7.28637">
        <ele>468.5</ele>
        <time>2014-11-01T08:14:56Z</time>
      </trkpt>
      <trkpt lat="43.93633" lon="7.28643">
        <ele>462.5</ele>
        <time>2014-11-01T08:14:58Z</time>
      </trkpt>
      <trkpt lat="43.93623" lon="7.28639">
        <ele>463.5</ele>
        <time>2014-11-01T08:15:06Z</time>
      </trkpt>
      <trkpt lat="43.9362" lon="7.28634">
        <ele>470.5</ele>
        <time>2014-11-01T08:15:12Z</time>
      </trkpt>
      <trkpt lat="43.93617" lon="7.28634">
        <ele>472.5</ele>
        <time>2014-11-01T08:15:14Z</time>
      </trkpt>
      <trkpt lat="43.93618" lon="7.28634">
        <ele>472.5</ele>
        <time>2014-11-01T08:15:15Z</time>
      </trkpt>
      <trkpt lat="43.93614" lon="7.28635">
        <ele>475.5</ele>
        <time>2014-11-01T08:15:18Z</time>
      </trkpt>
      <trkpt lat="43.93614" lon="7.28634">
        <ele>476.5</ele>
        <time>2014-11-01T08:15:19Z</time>
      </trkpt>
      <trkpt lat="43.93612" lon="7.28634">
        <ele>477.5</ele>
        <time>2014-11-01T08:15:27Z</time>
      </trkpt>
      <trkpt lat="43.93612" lon="7.28633">
        <ele>477.5</ele>
        <time>2014-11-01T08:15:28Z</time>
      </trkpt>
      <trkpt lat="43.93613" lon="7.28633">
        <ele>477.5</ele>
        <time>2014-11-01T08:15:29Z</time>
      </trkpt>
      <trkpt lat="43.93614" lon="7.28632">
        <ele>477.5</ele>
        <time>2014-11-01T08:15:34Z</time>
      </trkpt>
      <trkpt lat="43.93614" lon="7.28632">
        <ele>477.5</ele>
        <time>2014-11-01T08:15:35Z</time>
      </trkpt>
      <trkpt lat="43.93614" lon="7.28632">
        <ele>477.5</ele>
        <time>2014-11-01T08:15:38Z</time>
      </trkpt>
      <trkpt lat="43.93613" lon="7.28627">
        <ele>484.5</ele>
        <time>2014-11-01T08:16:04Z</time>
      </trkpt>
      <trkpt lat="43.93613" lon="7.28627">
        <ele>484.5</ele>
        <time>2014-11-01T08:16:10Z</time>
      </trkpt>
      <trkpt lat="43.936" lon="7.28616">
        <ele>478.5</ele>
        <time>2014-11-01T08:16:30Z</time>
      </trkpt>
      <trkpt lat="43.93585" lon="7.2861">
        <ele>485.5</ele>
        <time>2014-11-01T08:16:41Z</time>
      </trkpt>
      <trkpt lat="43.93576" lon="7.28595">
        <ele>489.5</ele>
        <time>2014-11-01T08:16:52Z</time>
      </trkpt>
      <trkpt lat="43.93577" lon="7.28589">
        <ele>491.5</ele>
        <time>2014-11-01T08:16:54Z</time>
      </trkpt>
      <trkpt lat="43.93579" lon="7.2858">
        <ele>492.5</ele>
        <time>2014-11-01T08:16:57Z</time>
      </trkpt>
      <trkpt lat="43.93578" lon="7.2858">
        <ele>492.5</ele>
        <time>2014-11-01T08:16:58Z</time>
      </trkpt>
      <trkpt lat="43.93577" lon="7.28578">
        <ele>492.5</ele>
        <time>2014-11-01T08:16:59Z</time>
      </trkpt>
      <trkpt lat="43.93578" lon="7.28573">
        <ele>492.5</ele>
        <time>2014-11-01T08:17:00Z</time>
      </trkpt>
      <trkpt lat="43.93579" lon="7.28569">
        <ele>491.5</ele>
        <time>2014-11-01T08:17:01Z</time>
      </trkpt>
      <trkpt lat="43.93579" lon="7.2856">
        <ele>490.5</ele>
        <time>2014-11-01T08:17:06Z</time>
      </trkpt>
      <trkpt lat="43.93578" lon="7.28559">
        <ele>491.5</ele>
        <time>2014-11-01T08:17:07Z</time>
      </trkpt>
      <trkpt lat="43.93576" lon="7.28556">
        <ele>494.5</ele>
        <time>2014-11-01T08:17:09Z</time>
      </trkpt>
      <trkpt lat="43.93579" lon="7.28538">
        <ele>500.5</ele>
        <time>2014-11-01T08:17:22Z</time>
      </trkpt>
      <trkpt lat="43.93568" lon="7.28523">
        <ele>504.5</ele>
        <time>2014-11-01T08:17:40Z</time>
      </trkpt>
      <trkpt lat="43.93557" lon="7.28514">
        <ele>507.5</ele>
        <time>2014-11-01T08:17:53Z</time>
      </trkpt>
      <trkpt lat="43.93546" lon="7.285">
        <ele>511.5</ele>
        <time>2014-11-01T08:18:06Z</time>
      </trkpt>
      <trkpt lat="43.93537" lon="7.28496">
        <ele>509.5</ele>
        <time>2014-11-01T08:18:14Z</time>
      </trkpt>
      <trkpt lat="43.93527" lon="7.28481">
        <ele>518.5</ele>
        <time>2014-11-01T08:18:35Z</time>
      </trkpt>
      <trkpt lat="43.93527" lon="7.2848">
        <ele>517.5</ele>
        <time>2014-11-01T08:18:37Z</time>
      </trkpt>
      <trkpt lat="43.93521" lon="7.28462">
        <ele>526.5</ele>
        <time>2014-11-01T08:19:08Z</time>
      </trkpt>
      <trkpt lat="43.93526" lon="7.28459">
        <ele>527.5</ele>
        <time>2014-11-01T08:19:09Z</time>
      </trkpt>
      <trkpt lat="43.93526" lon="7.28455">
        <ele>529.5</ele>
        <time>2014-11-01T08:19:13Z</time>
      </trkpt>
      <trkpt lat="43.93526" lon="7.28446">
        <ele>525.5</ele>
        <time>2014-11-01T08:19:28Z</time>
      </trkpt>
      <trkpt lat="43.93525" lon="7.2845">
        <ele>527.5</ele>
        <time>2014-11-01T08:19:33Z</time>
      </trkpt>
      <trkpt lat="43.93512" lon="7.28437">
        <ele>528.5</ele>
        <time>2014-11-01T08:20:04Z</time>
      </trkpt>
      <trkpt lat="43.93507" lon="7.2843">
        <ele>529.5</ele>
        <time>2014-11-01T08:20:12Z</time>
      </trkpt>
      <trkpt lat="43.93511" lon="7.28422">
        <ele>531.5</ele>
        <time>2014-11-01T08:20:18Z</time>
      </trkpt>
      <trkpt lat="43.93506" lon="7.28417">
        <ele>532.5</ele>
        <time>2014-11-01T08:20:26Z</time>
      </trkpt>
      <trkpt lat="43.93501" lon="7.2841">
        <ele>537.5</ele>
        <time>2014-11-01T08:20:47Z</time>
      </trkpt>
      <trkpt lat="43.93487" lon="7.28405">
        <ele>537.5</ele>
        <time>2014-11-01T08:21:04Z</time>
      </trkpt>
      <trkpt lat="43.93477" lon="7.2841">
        <ele>536.5</ele>
        <time>2014-11-01T08:21:20Z</time>
      </trkpt>
      <trkpt lat="43.93463" lon="7.28416">
        <ele>548.5</ele>
        <time>2014-11-01T08:21:45Z</time>
      </trkpt>
      <trkpt lat="43.93452" lon="7.28431">
        <ele>544.5</ele>
        <time>2014-11-01T08:22:21Z</time>
      </trkpt>
      <trkpt lat="43.93437" lon="7.28428">
        <ele>545.5</ele>
        <time>2014-11-01T08:22:39Z</time>
      </trkpt>
      <trkpt lat="43.93427" lon="7.28412">
        <ele>567.5</ele>
        <time>2014-11-01T08:23:09Z</time>
      </trkpt>
      <trkpt lat="43.9342" lon="7.28394">
        <ele>567.5</ele>
        <time>2014-11-01T08:23:29Z</time>
      </trkpt>
      <trkpt lat="43.93419" lon="7.28372">
        <ele>587.5</ele>
        <time>2014-11-01T08:23:59Z</time>
      </trkpt>
      <trkpt lat="43.9341" lon="7.28372">
        <ele>576.5</ele>
        <time>2014-11-01T08:24:21Z</time>
      </trkpt>
      <trkpt lat="43.93396" lon="7.28366">
        <ele>576.5</ele>
        <time>2014-11-01T08:24:42Z</time>
      </trkpt>
      <trkpt lat="43.93381" lon="7.28371">
        <ele>580.5</ele>
        <time>2014-11-01T08:25:12Z</time>
      </trkpt>
      <trkpt lat="43.93378" lon="7.2837">
        <ele>586.5</ele>
        <time>2014-11-01T08:25:28Z</time>
      </trkpt>
      <trkpt lat="43.93376" lon="7.2837">
        <ele>588.5</ele>
        <time>2014-11-01T08:25:39Z</time>
      </trkpt>
      <trkpt lat="43.93362" lon="7.28364">
        <ele>591.5</ele>
        <time>2014-11-01T08:26:02Z</time>
      </trkpt>
      <trkpt lat="43.93347" lon="7.28357">
        <ele>596.5</ele>
        <time>2014-11-01T08:26:10Z</time>
      </trkpt>
      <trkpt lat="43.93344" lon="7.28358">
        <ele>596.5</ele>
        <time>2014-11-01T08:26:12Z</time>
      </trkpt>
      <trkpt lat="43.93344" lon="7.28355">
        <ele>595.5</ele>
        <time>2014-11-01T08:26:13Z</time>
      </trkpt>
      <trkpt lat="43.93332" lon="7.28342">
        <ele>594.5</ele>
        <time>2014-11-01T08:26:35Z</time>
      </trkpt>
      <trkpt lat="43.93335" lon="7.28341">
        <ele>598.5</ele>
        <time>2014-11-01T08:26:42Z</time>
      </trkpt>
      <trkpt lat="43.93335" lon="7.28337">
        <ele>598.5</ele>
        <time>2014-11-01T08:26:53Z</time>
      </trkpt>
      <trkpt lat="43.93333" lon="7.28335">
        <ele>600.5</ele>
        <time>2014-11-01T08:27:09Z</time>
      </trkpt>
      <trkpt lat="43.93332" lon="7.28335">
        <ele>600.5</ele>
        <time>2014-11-01T08:27:16Z</time>
      </trkpt>
      <trkpt lat="43.93318" lon="7.28333">
        <ele>599.5</ele>
        <time>2014-11-01T08:27:43Z</time>
      </trkpt>
      <trkpt lat="43.93305" lon="7.28323">
        <ele>600.5</ele>
        <time>2014-11-01T08:27:57Z</time>
      </trkpt>
      <trkpt lat="43.93293" lon="7.28312">
        <ele>610.5</ele>
        <time>2014-11-01T08:28:20Z</time>
      </trkpt>
      <trkpt lat="43.9329" lon="7.28309">
        <ele>614.5</ele>
        <time>2014-11-01T08:28:46Z</time>
      </trkpt>
      <trkpt lat="43.93296" lon="7.28291">
        <ele>620.5</ele>
        <time>2014-11-01T08:29:13Z</time>
      </trkpt>
      <trkpt lat="43.93297" lon="7.28284">
        <ele>623.5</ele>
        <time>2014-11-01T08:29:16Z</time>
      </trkpt>
      <trkpt lat="43.93296" lon="7.28278">
        <ele>623.5</ele>
        <time>2014-11-01T08:29:19Z</time>
      </trkpt>
      <trkpt lat="43.93289" lon="7.28261">
        <ele>630.5</ele>
        <time>2014-11-01T08:29:35Z</time>
      </trkpt>
      <trkpt lat="43.93281" lon="7.28256">
        <ele>630.5</ele>
        <time>2014-11-01T08:29:47Z</time>
      </trkpt>
      <trkpt lat="43.93269" lon="7.28246">
        <ele>637.5</ele>
        <time>2014-11-01T08:30:22Z</time>
      </trkpt>
      <trkpt lat="43.93261" lon="7.28247">
        <ele>632.5</ele>
        <time>2014-11-01T08:30:34Z</time>
      </trkpt>
      <trkpt lat="43.9326" lon="7.28246">
        <ele>630.5</ele>
        <time>2014-11-01T08:30:37Z</time>
      </trkpt>
      <trkpt lat="43.93247" lon="7.28238">
        <ele>639.5</ele>
        <time>2014-11-01T08:34:35Z</time>
      </trkpt>
      <trkpt lat="43.93235" lon="7.28225">
        <ele>637.5</ele>
        <time>2014-11-01T08:34:52Z</time>
      </trkpt>
      <trkpt lat="43.9322" lon="7.2822">
        <ele>644.5</ele>
        <time>2014-11-01T08:35:06Z</time>
      </trkpt>
      <trkpt lat="43.93212" lon="7.28215">
        <ele>642.5</ele>
        <time>2014-11-01T08:35:24Z</time>
      </trkpt>
      <trkpt lat="43.93208" lon="7.28216">
        <ele>641.5</ele>
        <time>2014-11-01T08:35:30Z</time>
      </trkpt>
      <trkpt lat="43.93195" lon="7.28203">
        <ele>643.5</ele>
        <time>2014-11-01T08:35:51Z</time>
      </trkpt>
      <trkpt lat="43.93195" lon="7.28202">
        <ele>642.5</ele>
        <time>2014-11-01T08:35:52Z</time>
      </trkpt>
      <trkpt lat="43.93182" lon="7.28193">
        <ele>646.5</ele>
        <time>2014-11-01T08:36:12Z</time>
      </trkpt>
      <trkpt lat="43.93172" lon="7.28186">
        <ele>653.5</ele>
        <time>2014-11-01T08:36:26Z</time>
      </trkpt>
      <trkpt lat="43.93159" lon="7.28176">
        <ele>659.5</ele>
        <time>2014-11-01T08:36:46Z</time>
      </trkpt>
      <trkpt lat="43.9316" lon="7.28174">
        <ele>662.5</ele>
        <time>2014-11-01T08:36:48Z</time>
      </trkpt>
      <trkpt lat="43.93148" lon="7.28166">
        <ele>670.5</ele>
        <time>2014-11-01T08:37:06Z</time>
      </trkpt>
      <trkpt lat="43.93138" lon="7.28182">
        <ele>686.5</ele>
        <time>2014-11-01T08:38:27Z</time>
      </trkpt>
      <trkpt lat="43.93123" lon="7.28182">
        <ele>687.5</ele>
        <time>2014-11-01T08:38:38Z</time>
      </trkpt>
      <trkpt lat="43.93124" lon="7.2818">
        <ele>688.5</ele>
        <time>2014-11-01T08:38:40Z</time>
      </trkpt>
      <trkpt lat="43.93108" lon="7.28181">
        <ele>693.5</ele>
        <time>2014-11-01T08:39:34Z</time>
      </trkpt>
      <trkpt lat="43.93101" lon="7.28199">
        <ele>691.5</ele>
        <time>2014-11-01T08:39:46Z</time>
      </trkpt>
      <trkpt lat="43.93096" lon="7.28194">
        <ele>695.5</ele>
        <time>2014-11-01T08:39:51Z</time>
      </trkpt>
      <trkpt lat="43.93095" lon="7.28202">
        <ele>696.5</ele>
        <time>2014-11-01T08:40:10Z</time>
      </trkpt>
      <trkpt lat="43.93081" lon="7.28211">
        <ele>705.5</ele>
        <time>2014-11-01T08:40:47Z</time>
      </trkpt>
      <trkpt lat="43.93069" lon="7.28224">
        <ele>709.5</ele>
        <time>2014-11-01T08:41:11Z</time>
      </trkpt>
      <trkpt lat="43.93064" lon="7.28228">
        <ele>709.5</ele>
        <time>2014-11-01T08:41:17Z</time>
      </trkpt>
      <trkpt lat="43.9305" lon="7.28237">
        <ele>715.5</ele>
        <time>2014-11-01T08:41:39Z</time>
      </trkpt>
      <trkpt lat="43.93046" lon="7.28248">
        <ele>715.5</ele>
        <time>2014-11-01T08:41:56Z</time>
      </trkpt>
      <trkpt lat="43.93037" lon="7.28266">
        <ele>726.5</ele>
        <time>2014-11-01T08:42:31Z</time>
      </trkpt>
      <trkpt lat="43.93037" lon="7.28266">
        <ele>726.5</ele>
        <time>2014-11-01T08:42:32Z</time>
      </trkpt>
      <trkpt lat="43.93021" lon="7.28273">
        <ele>732.5</ele>
        <time>2014-11-01T08:43:13Z</time>
      </trkpt>
      <trkpt lat="43.93019" lon="7.28269">
        <ele>730.5</ele>
        <time>2014-11-01T08:43:18Z</time>
      </trkpt>
      <trkpt lat="43.93006" lon="7.28278">
        <ele>735.5</ele>
        <time>2014-11-01T08:43:39Z</time>
      </trkpt>
      <trkpt lat="43.93004" lon="7.2828">
        <ele>735.5</ele>
        <time>2014-11-01T08:43:41Z</time>
      </trkpt>
      <trkpt lat="43.9299" lon="7.28291">
        <ele>745.5</ele>
        <time>2014-11-01T08:44:10Z</time>
      </trkpt>
      <trkpt lat="43.92986" lon="7.28294">
        <ele>749.5</ele>
        <time>2014-11-01T08:44:28Z</time>
      </trkpt>
      <trkpt lat="43.92972" lon="7.28297">
        <ele>745.5</ele>
        <time>2014-11-01T08:44:42Z</time>
      </trkpt>
      <trkpt lat="43.92958" lon="7.28303">
        <ele>752.5</ele>
        <time>2014-11-01T08:45:02Z</time>
      </trkpt>
      <trkpt lat="43.92943" lon="7.28299">
        <ele>749.5</ele>
        <time>2014-11-01T08:45:19Z</time>
      </trkpt>
      <trkpt lat="43.92944" lon="7.28301">
        <ele>748.5</ele>
        <time>2014-11-01T08:45:30Z</time>
      </trkpt>
      <trkpt lat="43.92944" lon="7.283">
        <ele>748.5</ele>
        <time>2014-11-01T08:45:32Z</time>
      </trkpt>
      <trkpt lat="43.92933" lon="7.28284">
        <ele>751.5</ele>
        <time>2014-11-01T08:46:13Z</time>
      </trkpt>
      <trkpt lat="43.92924" lon="7.28269">
        <ele>754.5</ele>
        <time>2014-11-01T08:46:25Z</time>
      </trkpt>
      <trkpt lat="43.92911" lon="7.28259">
        <ele>767.5</ele>
        <time>2014-11-01T08:46:44Z</time>
      </trkpt>
      <trkpt lat="43.929" lon="7.28257">
        <ele>768.5</ele>
        <time>2014-11-01T08:46:52Z</time>
      </trkpt>
      <trkpt lat="43.92887" lon="7.28265">
        <ele>776.5</ele>
        <time>2014-11-01T08:47:25Z</time>
      </trkpt>
      <trkpt lat="43.92886" lon="7.28264">
        <ele>782.5</ele>
        <time>2014-11-01T08:47:36Z</time>
      </trkpt>
      <trkpt lat="43.92871" lon="7.28259">
        <ele>788.5</ele>
        <time>2014-11-01T08:48:20Z</time>
      </trkpt>
      <trkpt lat="43.92859" lon="7.28273">
        <ele>782.5</ele>
        <time>2014-11-01T08:48:45Z</time>
      </trkpt>
      <trkpt lat="43.92858" lon="7.28271">
        <ele>781.5</ele>
        <time>2014-11-01T08:48:47Z</time>
      </trkpt>
      <trkpt lat="43.92844" lon="7.28278">
        <ele>788.5</ele>
        <time>2014-11-01T08:49:26Z</time>
      </trkpt>
      <trkpt lat="43.92829" lon="7.28278">
        <ele>794.5</ele>
        <time>2014-11-01T08:50:19Z</time>
      </trkpt>
      <trkpt lat="43.92819" lon="7.28291">
        <ele>799.5</ele>
        <time>2014-11-01T08:50:55Z</time>
      </trkpt>
      <trkpt lat="43.92803" lon="7.28289">
        <ele>807.5</ele>
        <time>2014-11-01T08:51:38Z</time>
      </trkpt>
      <trkpt lat="43.92785" lon="7.28282">
        <ele>809.5</ele>
        <time>2014-11-01T08:51:40Z</time>
      </trkpt>
      <trkpt lat="43.92793" lon="7.28284">
        <ele>811.5</ele>
        <time>2014-11-01T08:51:41Z</time>
      </trkpt>
      <trkpt lat="43.92795" lon="7.28285">
        <ele>811.5</ele>
        <time>2014-11-01T08:51:42Z</time>
      </trkpt>
      <trkpt lat="43.92794" lon="7.28284">
        <ele>812.5</ele>
        <time>2014-11-01T08:51:43Z</time>
      </trkpt>
      <trkpt lat="43.9278" lon="7.2829">
        <ele>816.5</ele>
        <time>2014-11-01T08:52:20Z</time>
      </trkpt>
      <trkpt lat="43.92768" lon="7.28303">
        <ele>822.5</ele>
        <time>2014-11-01T08:52:54Z</time>
      </trkpt>
      <trkpt lat="43.92755" lon="7.28312">
        <ele>823.5</ele>
        <time>2014-11-01T08:53:16Z</time>
      </trkpt>
      <trkpt lat="43.92746" lon="7.28329">
        <ele>836.5</ele>
        <time>2014-11-01T08:54:49Z</time>
      </trkpt>
      <trkpt lat="43.92732" lon="7.28338">
        <ele>843.5</ele>
        <time>2014-11-01T08:57:34Z</time>
      </trkpt>
      <trkpt lat="43.92732" lon="7.28337">
        <ele>844.5</ele>
        <time>2014-11-01T08:57:36Z</time>
      </trkpt>
      <trkpt lat="43.92724" lon="7.28356">
        <ele>837.5</ele>
        <time>2014-11-01T08:57:55Z</time>
      </trkpt>
      <trkpt lat="43.92709" lon="7.28361">
        <ele>837.5</ele>
        <time>2014-11-01T08:58:24Z</time>
      </trkpt>
      <trkpt lat="43.92695" lon="7.28361">
        <ele>842.5</ele>
        <time>2014-11-01T08:58:48Z</time>
      </trkpt>
      <trkpt lat="43.9268" lon="7.28354">
        <ele>839.5</ele>
        <time>2014-11-01T08:59:11Z</time>
      </trkpt>
      <trkpt lat="43.92681" lon="7.28354">
        <ele>840.5</ele>
        <time>2014-11-01T08:59:12Z</time>
      </trkpt>
      <trkpt lat="43.92675" lon="7.28353">
        <ele>841.5</ele>
        <time>2014-11-01T08:59:15Z</time>
      </trkpt>
      <trkpt lat="43.9266" lon="7.28348">
        <ele>858.5</ele>
        <time>2014-11-01T08:59:31Z</time>
      </trkpt>
      <trkpt lat="43.92656" lon="7.28348">
        <ele>859.5</ele>
        <time>2014-11-01T08:59:39Z</time>
      </trkpt>
      <trkpt lat="43.92641" lon="7.28348">
        <ele>870.5</ele>
        <time>2014-11-01T09:00:09Z</time>
      </trkpt>
      <trkpt lat="43.92637" lon="7.28348">
        <ele>869.5</ele>
        <time>2014-11-01T09:00:13Z</time>
      </trkpt>
      <trkpt lat="43.92623" lon="7.28351">
        <ele>877.5</ele>
        <time>2014-11-01T09:01:00Z</time>
      </trkpt>
      <trkpt lat="43.92608" lon="7.28351">
        <ele>877.5</ele>
        <time>2014-11-01T09:01:11Z</time>
      </trkpt>
      <trkpt lat="43.92608" lon="7.28351">
        <ele>879.5</ele>
        <time>2014-11-01T09:01:12Z</time>
      </trkpt>
      <trkpt lat="43.9261" lon="7.28372">
        <ele>883.5</ele>
        <time>2014-11-01T09:01:43Z</time>
      </trkpt>
      <trkpt lat="43.92612" lon="7.28392">
        <ele>886.5</ele>
        <time>2014-11-01T09:02:02Z</time>
      </trkpt>
      <trkpt lat="43.92599" lon="7.28398">
        <ele>893.5</ele>
        <time>2014-11-01T09:02:28Z</time>
      </trkpt>
      <trkpt lat="43.92584" lon="7.284">
        <ele>894.5</ele>
        <time>2014-11-01T09:02:55Z</time>
      </trkpt>
      <trkpt lat="43.9257" lon="7.28407">
        <ele>905.5</ele>
        <time>2014-11-01T09:03:30Z</time>
      </trkpt>
      <trkpt lat="43.92563" lon="7.28425">
        <ele>902.5</ele>
        <time>2014-11-01T09:03:56Z</time>
      </trkpt>
      <trkpt lat="43.92552" lon="7.28438">
        <ele>903.5</ele>
        <time>2014-11-01T09:04:19Z</time>
      </trkpt>
      <trkpt lat="43.9254" lon="7.28449">
        <ele>902.5</ele>
        <time>2014-11-01T09:04:43Z</time>
      </trkpt>
      <trkpt lat="43.92527" lon="7.2846">
        <ele>908.5</ele>
        <time>2014-11-01T09:05:02Z</time>
      </trkpt>
      <trkpt lat="43.92515" lon="7.28471">
        <ele>918.5</ele>
        <time>2014-11-01T09:05:19Z</time>
      </trkpt>
      <trkpt lat="43.92502" lon="7.28483">
        <ele>921.5</ele>
        <time>2014-11-01T09:05:44Z</time>
      </trkpt>
      <trkpt lat="43.92488" lon="7.28492">
        <ele>916.5</ele>
        <time>2014-11-01T09:06:06Z</time>
      </trkpt>
      <trkpt lat="43.92486" lon="7.28493">
        <ele>916.5</ele>
        <time>2014-11-01T09:06:08Z</time>
      </trkpt>
      <trkpt lat="43.92472" lon="7.28501">
        <ele>919.5</ele>
        <time>2014-11-01T09:06:31Z</time>
      </trkpt>
      <trkpt lat="43.92469" lon="7.28499">
        <ele>918.5</ele>
        <time>2014-11-01T09:06:35Z</time>
      </trkpt>
      <trkpt lat="43.92471" lon="7.28501">
        <ele>919.5</ele>
        <time>2014-11-01T09:06:40Z</time>
      </trkpt>
      <trkpt lat="43.92456" lon="7.28493">
        <ele>931.5</ele>
        <time>2014-11-01T09:07:27Z</time>
      </trkpt>
      <trkpt lat="43.92443" lon="7.28493">
        <ele>940.5</ele>
        <time>2014-11-01T09:07:57Z</time>
      </trkpt>
      <trkpt lat="43.9243" lon="7.28504">
        <ele>939.5</ele>
        <time>2014-11-01T09:08:37Z</time>
      </trkpt>
      <trkpt lat="43.92424" lon="7.28508">
        <ele>934.5</ele>
        <time>2014-11-01T09:08:42Z</time>
      </trkpt>
      <trkpt lat="43.92411" lon="7.28519">
        <ele>952.5</ele>
        <time>2014-11-01T09:08:56Z</time>
      </trkpt>
      <trkpt lat="43.92403" lon="7.28521">
        <ele>947.5</ele>
        <time>2014-11-01T09:09:07Z</time>
      </trkpt>
      <trkpt lat="43.9239" lon="7.28522">
        <ele>946.5</ele>
        <time>2014-11-01T09:09:25Z</time>
      </trkpt>
      <trkpt lat="43.92384" lon="7.28542">
        <ele>964.5</ele>
        <time>2014-11-01T09:10:20Z</time>
      </trkpt>
      <trkpt lat="43.92383" lon="7.28537">
        <ele>965.5</ele>
        <time>2014-11-01T09:10:21Z</time>
      </trkpt>
      <trkpt lat="43.92368" lon="7.28535">
        <ele>973.5</ele>
        <time>2014-11-01T09:11:19Z</time>
      </trkpt>
      <trkpt lat="43.92353" lon="7.28534">
        <ele>973.5</ele>
        <time>2014-11-01T09:11:37Z</time>
      </trkpt>
      <trkpt lat="43.92351" lon="7.28536">
        <ele>972.5</ele>
        <time>2014-11-01T09:11:41Z</time>
      </trkpt>
      <trkpt lat="43.92336" lon="7.28537">
        <ele>985.5</ele>
        <time>2014-11-01T09:12:10Z</time>
      </trkpt>
      <trkpt lat="43.92323" lon="7.28544">
        <ele>992.5</ele>
        <time>2014-11-01T09:12:29Z</time>
      </trkpt>
      <trkpt lat="43.92312" lon="7.2853">
        <ele>999.5</ele>
        <time>2014-11-01T09:12:56Z</time>
      </trkpt>
      <trkpt lat="43.92298" lon="7.28539">
        <ele>1002.5</ele>
        <time>2014-11-01T09:13:16Z</time>
      </trkpt>
      <trkpt lat="43.92284" lon="7.28543">
        <ele>1005.5</ele>
        <time>2014-11-01T09:13:36Z</time>
      </trkpt>
      <trkpt lat="43.92279" lon="7.28562">
        <ele>1013.5</ele>
        <time>2014-11-01T09:29:33Z</time>
      </trkpt>
      <trkpt lat="43.92264" lon="7.28558">
        <ele>1001.5</ele>
        <time>2014-11-01T09:31:53Z</time>
      </trkpt>
      <trkpt lat="43.92252" lon="7.28571">
        <ele>1002.5</ele>
        <time>2014-11-01T09:32:04Z</time>
      </trkpt>
      <trkpt lat="43.92239" lon="7.28582">
        <ele>998.5</ele>
        <time>2014-11-01T09:32:26Z</time>
      </trkpt>
      <trkpt lat="43.92227" lon="7.28595">
        <ele>998.5</ele>
        <time>2014-11-01T09:32:41Z</time>
      </trkpt>
      <trkpt lat="43.92216" lon="7.28608">
        <ele>995.5</ele>
        <time>2014-11-01T09:32:54Z</time>
      </trkpt>
      <trkpt lat="43.92205" lon="7.28622">
        <ele>999.5</ele>
        <time>2014-11-01T09:33:17Z</time>
      </trkpt>
      <trkpt lat="43.92193" lon="7.28634">
        <ele>997.5</ele>
        <time>2014-11-01T09:33:34Z</time>
      </trkpt>
      <trkpt lat="43.9218" lon="7.28643">
        <ele>988.5</ele>
        <time>2014-11-01T09:33:49Z</time>
      </trkpt>
      <trkpt lat="43.92169" lon="7.28657">
        <ele>990.5</ele>
        <time>2014-11-01T09:38:33Z</time>
      </trkpt>
      <trkpt lat="43.92155" lon="7.28663">
        <ele>990.5</ele>
        <time>2014-11-01T09:38:53Z</time>
      </trkpt>
      <trkpt lat="43.92143" lon="7.28675">
        <ele>997.5</ele>
        <time>2014-11-01T09:39:16Z</time>
      </trkpt>
      <trkpt lat="43.92138" lon="7.28694">
        <ele>998.5</ele>
        <time>2014-11-01T09:39:34Z</time>
      </trkpt>
      <trkpt lat="43.92129" lon="7.28711">
        <ele>999.5</ele>
        <time>2014-11-01T09:39:45Z</time>
      </trkpt>
      <trkpt lat="43.92121" lon="7.28728">
        <ele>997.5</ele>
        <time>2014-11-01T09:39:55Z</time>
      </trkpt>
      <trkpt lat="43.92115" lon="7.28748">
        <ele>998.5</ele>
        <time>2014-11-01T09:40:11Z</time>
      </trkpt>
      <trkpt lat="43.92111" lon="7.28769">
        <ele>991.5</ele>
        <time>2014-11-01T09:40:31Z</time>
      </trkpt>
      <trkpt lat="43.92113" lon="7.28789">
        <ele>991.5</ele>
        <time>2014-11-01T09:40:56Z</time>
      </trkpt>
      <trkpt lat="43.92113" lon="7.28809">
        <ele>983.5</ele>
        <time>2014-11-01T09:41:22Z</time>
      </trkpt>
      <trkpt lat="43.92111" lon="7.28829">
        <ele>985.5</ele>
        <time>2014-11-01T09:42:02Z</time>
      </trkpt>
      <trkpt lat="43.92098" lon="7.28836">
        <ele>982.5</ele>
        <time>2014-11-01T09:42:23Z</time>
      </trkpt>
      <trkpt lat="43.92085" lon="7.28848">
        <ele>981.5</ele>
        <time>2014-11-01T09:42:45Z</time>
      </trkpt>
      <trkpt lat="43.92075" lon="7.28862">
        <ele>979.5</ele>
        <time>2014-11-01T09:43:00Z</time>
      </trkpt>
      <trkpt lat="43.92062" lon="7.28872">
        <ele>979.5</ele>
        <time>2014-11-01T09:43:18Z</time>
      </trkpt>
      <trkpt lat="43.92053" lon="7.28887">
        <ele>969.5</ele>
        <time>2014-11-01T09:43:45Z</time>
      </trkpt>
      <trkpt lat="43.92043" lon="7.28903">
        <ele>963.5</ele>
        <time>2014-11-01T09:43:56Z</time>
      </trkpt>
      <trkpt lat="43.92035" lon="7.2892">
        <ele>961.5</ele>
        <time>2014-11-01T09:44:09Z</time>
      </trkpt>
      <trkpt lat="43.92026" lon="7.28937">
        <ele>952.5</ele>
        <time>2014-11-01T09:44:21Z</time>
      </trkpt>
      <trkpt lat="43.92016" lon="7.28951">
        <ele>951.5</ele>
        <time>2014-11-01T09:44:35Z</time>
      </trkpt>
      <trkpt lat="43.92006" lon="7.28966">
        <ele>950.5</ele>
        <time>2014-11-01T09:44:50Z</time>
      </trkpt>
      <trkpt lat="43.91994" lon="7.28979">
        <ele>949.5</ele>
        <time>2014-11-01T09:45:08Z</time>
      </trkpt>
      <trkpt lat="43.91982" lon="7.2899">
        <ele>944.5</ele>
        <time>2014-11-01T09:45:36Z</time>
      </trkpt>
      <trkpt lat="43.91971" lon="7.29004">
        <ele>941.5</ele>
        <time>2014-11-01T09:46:02Z</time>
      </trkpt>
      <trkpt lat="43.91967" lon="7.29024">
        <ele>941.5</ele>
        <time>2014-11-01T09:46:28Z</time>
      </trkpt>
      <trkpt lat="43.91957" lon="7.29039">
        <ele>939.5</ele>
        <time>2014-11-01T09:46:54Z</time>
      </trkpt>
      <trkpt lat="43.91944" lon="7.29047">
        <ele>930.5</ele>
        <time>2014-11-01T09:47:11Z</time>
      </trkpt>
      <trkpt lat="43.9193" lon="7.29053">
        <ele>926.5</ele>
        <time>2014-11-01T09:47:36Z</time>
      </trkpt>
      <trkpt lat="43.91919" lon="7.29068">
        <ele>931.5</ele>
        <time>2014-11-01T09:48:16Z</time>
      </trkpt>
      <trkpt lat="43.91907" lon="7.2908">
        <ele>924.5</ele>
        <time>2014-11-01T09:48:41Z</time>
      </trkpt>
      <trkpt lat="43.91899" lon="7.29084">
        <ele>922.5</ele>
        <time>2014-11-01T09:48:46Z</time>
      </trkpt>
      <trkpt lat="43.919" lon="7.29105">
        <ele>928.5</ele>
        <time>2014-11-01T09:49:13Z</time>
      </trkpt>
      <trkpt lat="43.91895" lon="7.29124">
        <ele>925.5</ele>
        <time>2014-11-01T09:49:38Z</time>
      </trkpt>
      <trkpt lat="43.91888" lon="7.29142">
        <ele>919.5</ele>
        <time>2014-11-01T09:49:57Z</time>
      </trkpt>
      <trkpt lat="43.91878" lon="7.29157">
        <ele>907.5</ele>
        <time>2014-11-01T09:50:21Z</time>
      </trkpt>
      <trkpt lat="43.91864" lon="7.29165">
        <ele>897.5</ele>
        <time>2014-11-01T09:50:37Z</time>
      </trkpt>
      <trkpt lat="43.91849" lon="7.29164">
        <ele>894.5</ele>
        <time>2014-11-01T09:51:15Z</time>
      </trkpt>
      <trkpt lat="43.91835" lon="7.2917">
        <ele>891.5</ele>
        <time>2014-11-01T09:51:26Z</time>
      </trkpt>
      <trkpt lat="43.91822" lon="7.29162">
        <ele>888.5</ele>
        <time>2014-11-01T09:52:00Z</time>
      </trkpt>
      <trkpt lat="43.91813" lon="7.29144">
        <ele>885.5</ele>
        <time>2014-11-01T09:52:17Z</time>
      </trkpt>
      <trkpt lat="43.91809" lon="7.29124">
        <ele>875.5</ele>
        <time>2014-11-01T09:52:37Z</time>
      </trkpt>
      <trkpt lat="43.91809" lon="7.29103">
        <ele>874.5</ele>
        <time>2014-11-01T09:52:56Z</time>
      </trkpt>
      <trkpt lat="43.91812" lon="7.29082">
        <ele>869.5</ele>
        <time>2014-11-01T09:53:28Z</time>
      </trkpt>
      <trkpt lat="43.91814" lon="7.29062">
        <ele>867.5</ele>
        <time>2014-11-01T09:53:38Z</time>
      </trkpt>
      <trkpt lat="43.91812" lon="7.2906">
        <ele>869.5</ele>
        <time>2014-11-01T09:53:39Z</time>
      </trkpt>
      <trkpt lat="43.91811" lon="7.29039">
        <ele>856.5</ele>
        <time>2014-11-01T09:53:55Z</time>
      </trkpt>
      <trkpt lat="43.91807" lon="7.29031">
        <ele>851.5</ele>
        <time>2014-11-01T09:54:00Z</time>
      </trkpt>
      <trkpt lat="43.91801" lon="7.29012">
        <ele>846.5</ele>
        <time>2014-11-01T09:54:19Z</time>
      </trkpt>
      <trkpt lat="43.91797" lon="7.28992">
        <ele>850.5</ele>
        <time>2014-11-01T09:54:39Z</time>
      </trkpt>
      <trkpt lat="43.91799" lon="7.2899">
        <ele>852.5</ele>
        <time>2014-11-01T09:54:45Z</time>
      </trkpt>
      <trkpt lat="43.91798" lon="7.28989">
        <ele>850.5</ele>
        <time>2014-11-01T09:54:57Z</time>
      </trkpt>
      <trkpt lat="43.91796" lon="7.28968">
        <ele>849.5</ele>
        <time>2014-11-01T09:55:20Z</time>
      </trkpt>
      <trkpt lat="43.91794" lon="7.28966">
        <ele>846.5</ele>
        <time>2014-11-01T09:55:21Z</time>
      </trkpt>
      <trkpt lat="43.9179" lon="7.28959">
        <ele>846.5</ele>
        <time>2014-11-01T09:55:26Z</time>
      </trkpt>
      <trkpt lat="43.91778" lon="7.28948">
        <ele>837.5</ele>
        <time>2014-11-01T09:55:37Z</time>
      </trkpt>
      <trkpt lat="43.91769" lon="7.28931">
        <ele>841.5</ele>
        <time>2014-11-01T09:57:43Z</time>
      </trkpt>
      <trkpt lat="43.91769" lon="7.2893">
        <ele>839.5</ele>
        <time>2014-11-01T09:57:44Z</time>
      </trkpt>
      <trkpt lat="43.91773" lon="7.28909">
        <ele>848.5</ele>
        <time>2014-11-01T09:57:56Z</time>
      </trkpt>
      <trkpt lat="43.91775" lon="7.28889">
        <ele>843.5</ele>
        <time>2014-11-01T09:58:10Z</time>
      </trkpt>
      <trkpt lat="43.91772" lon="7.28867">
        <ele>837.5</ele>
        <time>2014-11-01T09:58:29Z</time>
      </trkpt>
      <trkpt lat="43.91772" lon="7.28864">
        <ele>838.5</ele>
        <time>2014-11-01T09:58:33Z</time>
      </trkpt>
      <trkpt lat="43.9176" lon="7.2885">
        <ele>837.5</ele>
        <time>2014-11-01T09:58:52Z</time>
      </trkpt>
      <trkpt lat="43.91762" lon="7.2885">
        <ele>837.5</ele>
        <time>2014-11-01T09:58:53Z</time>
      </trkpt>
      <trkpt lat="43.9176" lon="7.28848">
        <ele>838.5</ele>
        <time>2014-11-01T09:58:56Z</time>
      </trkpt>
      <trkpt lat="43.91749" lon="7.28833">
        <ele>830.5</ele>
        <time>2014-11-01T09:59:15Z</time>
      </trkpt>
      <trkpt lat="43.91744" lon="7.28815">
        <ele>827.5</ele>
        <time>2014-11-01T09:59:38Z</time>
      </trkpt>
      <trkpt lat="43.9174" lon="7.28795">
        <ele>818.5</ele>
        <time>2014-11-01T09:59:59Z</time>
      </trkpt>
      <trkpt lat="43.91734" lon="7.28776">
        <ele>814.5</ele>
        <time>2014-11-01T10:00:29Z</time>
      </trkpt>
      <trkpt lat="43.91731" lon="7.28755">
        <ele>807.5</ele>
        <time>2014-11-01T10:01:05Z</time>
      </trkpt>
      <trkpt lat="43.91741" lon="7.2874">
        <ele>805.5</ele>
        <time>2014-11-01T10:01:27Z</time>
      </trkpt>
      <trkpt lat="43.91754" lon="7.28729">
        <ele>794.5</ele>
        <time>2014-11-01T10:02:11Z</time>
      </trkpt>
      <trkpt lat="43.91755" lon="7.28726">
        <ele>795.5</ele>
        <time>2014-11-01T10:02:14Z</time>
      </trkpt>
      <trkpt lat="43.91767" lon="7.28712">
        <ele>791.5</ele>
        <time>2014-11-01T10:02:37Z</time>
      </trkpt>
      <trkpt lat="43.91777" lon="7.28698">
        <ele>788.5</ele>
        <time>2014-11-01T10:03:02Z</time>
      </trkpt>
      <trkpt lat="43.91787" lon="7.28683">
        <ele>786.5</ele>
        <time>2014-11-01T10:03:22Z</time>
      </trkpt>
      <trkpt lat="43.91796" lon="7.28667">
        <ele>785.5</ele>
        <time>2014-11-01T10:03:36Z</time>
      </trkpt>
      <trkpt lat="43.91805" lon="7.28651">
        <ele>781.5</ele>
        <time>2014-11-01T10:03:51Z</time>
      </trkpt>
      <trkpt lat="43.91807" lon="7.28631">
        <ele>785.5</ele>
        <time>2014-11-01T10:04:02Z</time>
      </trkpt>
      <trkpt lat="43.91805" lon="7.28619">
        <ele>786.5</ele>
        <time>2014-11-01T10:04:07Z</time>
      </trkpt>
      <trkpt lat="43.91802" lon="7.28599">
        <ele>784.5</ele>
        <time>2014-11-01T10:04:25Z</time>
      </trkpt>
      <trkpt lat="43.91803" lon="7.28578">
        <ele>784.5</ele>
        <time>2014-11-01T10:04:40Z</time>
      </trkpt>
      <trkpt lat="43.91804" lon="7.28557">
        <ele>784.5</ele>
        <time>2014-11-01T10:04:58Z</time>
      </trkpt>
      <trkpt lat="43.91802" lon="7.28536">
        <ele>787.5</ele>
        <time>2014-11-01T10:05:08Z</time>
      </trkpt>
      <trkpt lat="43.91812" lon="7.28521">
        <ele>785.5</ele>
        <time>2014-11-01T10:05:24Z</time>
      </trkpt>
      <trkpt lat="43.91823" lon="7.28508">
        <ele>782.5</ele>
        <time>2014-11-01T10:05:38Z</time>
      </trkpt>
      <trkpt lat="43.91834" lon="7.28494">
        <ele>785.5</ele>
        <time>2014-11-01T10:05:52Z</time>
      </trkpt>
      <trkpt lat="43.91842" lon="7.28477">
        <ele>781.5</ele>
        <time>2014-11-01T10:06:15Z</time>
      </trkpt>
      <trkpt lat="43.9184" lon="7.28456">
        <ele>782.5</ele>
        <time>2014-11-01T10:06:30Z</time>
      </trkpt>
      <trkpt lat="43.91845" lon="7.28436">
        <ele>774.5</ele>
        <time>2014-11-01T10:06:50Z</time>
      </trkpt>
      <trkpt lat="43.91853" lon="7.28419">
        <ele>773.5</ele>
        <time>2014-11-01T10:07:03Z</time>
      </trkpt>
      <trkpt lat="43.91862" lon="7.28403">
        <ele>769.5</ele>
        <time>2014-11-01T10:07:16Z</time>
      </trkpt>
      <trkpt lat="43.91869" lon="7.28386">
        <ele>774.5</ele>
        <time>2014-11-01T10:07:28Z</time>
      </trkpt>
      <trkpt lat="43.9187" lon="7.28383">
        <ele>774.5</ele>
        <time>2014-11-01T10:07:29Z</time>
      </trkpt>
      <trkpt lat="43.91883" lon="7.28374">
        <ele>772.5</ele>
        <time>2014-11-01T10:07:44Z</time>
      </trkpt>
      <trkpt lat="43.91886" lon="7.28371">
        <ele>772.5</ele>
        <time>2014-11-01T10:07:47Z</time>
      </trkpt>
      <trkpt lat="43.91896" lon="7.28358">
        <ele>776.5</ele>
        <time>2014-11-01T10:08:00Z</time>
      </trkpt>
      <trkpt lat="43.91902" lon="7.28339">
        <ele>773.5</ele>
        <time>2014-11-01T10:08:27Z</time>
      </trkpt>
      <trkpt lat="43.9189" lon="7.28328">
        <ele>772.5</ele>
        <time>2014-11-01T10:08:42Z</time>
      </trkpt>
      <trkpt lat="43.91876" lon="7.28317">
        <ele>773.5</ele>
        <time>2014-11-01T10:09:00Z</time>
      </trkpt>
      <trkpt lat="43.91865" lon="7.28303">
        <ele>767.5</ele>
        <time>2014-11-01T10:09:13Z</time>
      </trkpt>
      <trkpt lat="43.91863" lon="7.28283">
        <ele>763.5</ele>
        <time>2014-11-01T10:09:26Z</time>
      </trkpt>
      <trkpt lat="43.91864" lon="7.28282">
        <ele>765.5</ele>
        <time>2014-11-01T10:09:27Z</time>
      </trkpt>
      <trkpt lat="43.91857" lon="7.28264">
        <ele>768.5</ele>
        <time>2014-11-01T10:09:48Z</time>
      </trkpt>
      <trkpt lat="43.91843" lon="7.28256">
        <ele>767.5</ele>
        <time>2014-11-01T10:10:01Z</time>
      </trkpt>
      <trkpt lat="43.91831" lon="7.2825">
        <ele>766.5</ele>
        <time>2014-11-01T10:10:13Z</time>
      </trkpt>
      <trkpt lat="43.91816" lon="7.28244">
        <ele>767.5</ele>
        <time>2014-11-01T10:10:30Z</time>
      </trkpt>
      <trkpt lat="43.91816" lon="7.28243">
        <ele>767.5</ele>
        <time>2014-11-01T10:10:31Z</time>
      </trkpt>
      <trkpt lat="43.91802" lon="7.28235">
        <ele>766.5</ele>
        <time>2014-11-01T10:10:47Z</time>
      </trkpt>
      <trkpt lat="43.91787" lon="7.28234">
        <ele>765.5</ele>
        <time>2014-11-01T10:11:01Z</time>
      </trkpt>
      <trkpt lat="43.91771" lon="7.28242">
        <ele>769.5</ele>
        <time>2014-11-01T10:11:18Z</time>
      </trkpt>
      <trkpt lat="43.91757" lon="7.28245">
        <ele>763.5</ele>
        <time>2014-11-01T10:11:30Z</time>
      </trkpt>
      <trkpt lat="43.91743" lon="7.28242">
        <ele>766.5</ele>
        <time>2014-11-01T10:11:45Z</time>
      </trkpt>
      <trkpt lat="43.91741" lon="7.28242">
        <ele>765.5</ele>
        <time>2014-11-01T10:11:46Z</time>
      </trkpt>
      <trkpt lat="43.91726" lon="7.28238">
        <ele>766.5</ele>
        <time>2014-11-01T10:12:01Z</time>
      </trkpt>
      <trkpt lat="43.91709" lon="7.28236">
        <ele>758.5</ele>
        <time>2014-11-01T10:12:16Z</time>
      </trkpt>
      <trkpt lat="43.91701" lon="7.28229">
        <ele>761.5</ele>
        <time>2014-11-01T10:12:28Z</time>
      </trkpt>
      <trkpt lat="43.9169" lon="7.28213">
        <ele>750.5</ele>
        <time>2014-11-01T10:12:45Z</time>
      </trkpt>
      <trkpt lat="43.91692" lon="7.28195">
        <ele>751.5</ele>
        <time>2014-11-01T10:12:58Z</time>
      </trkpt>
      <trkpt lat="43.9169" lon="7.28171">
        <ele>755.5</ele>
        <time>2014-11-01T10:13:17Z</time>
      </trkpt>
      <trkpt lat="43.9169" lon="7.28166">
        <ele>755.5</ele>
        <time>2014-11-01T10:13:19Z</time>
      </trkpt>
      <trkpt lat="43.91697" lon="7.28148">
        <ele>754.5</ele>
        <time>2014-11-01T10:13:39Z</time>
      </trkpt>
      <trkpt lat="43.91698" lon="7.2815">
        <ele>750.5</ele>
        <time>2014-11-01T10:13:40Z</time>
      </trkpt>
      <trkpt lat="43.91705" lon="7.28131">
        <ele>753.5</ele>
        <time>2014-11-01T10:13:51Z</time>
      </trkpt>
      <trkpt lat="43.91715" lon="7.28116">
        <ele>753.5</ele>
        <time>2014-11-01T10:14:11Z</time>
      </trkpt>
      <trkpt lat="43.91711" lon="7.28096">
        <ele>741.5</ele>
        <time>2014-11-01T10:14:46Z</time>
      </trkpt>
      <trkpt lat="43.91699" lon="7.28096">
        <ele>739.5</ele>
        <time>2014-11-01T10:14:54Z</time>
      </trkpt>
      <trkpt lat="43.91687" lon="7.28084">
        <ele>735.5</ele>
        <time>2014-11-01T10:15:11Z</time>
      </trkpt>
      <trkpt lat="43.91674" lon="7.28074">
        <ele>739.5</ele>
        <time>2014-11-01T10:15:22Z</time>
      </trkpt>
      <trkpt lat="43.91669" lon="7.28055">
        <ele>742.5</ele>
        <time>2014-11-01T10:15:33Z</time>
      </trkpt>
      <trkpt lat="43.91667" lon="7.28048">
        <ele>737.5</ele>
        <time>2014-11-01T10:15:41Z</time>
      </trkpt>
      <trkpt lat="43.9166" lon="7.2803">
        <ele>740.5</ele>
        <time>2014-11-01T10:15:54Z</time>
      </trkpt>
      <trkpt lat="43.91664" lon="7.2801">
        <ele>734.5</ele>
        <time>2014-11-01T10:16:07Z</time>
      </trkpt>
      <trkpt lat="43.91656" lon="7.27992">
        <ele>734.5</ele>
        <time>2014-11-01T10:16:16Z</time>
      </trkpt>
      <trkpt lat="43.91652" lon="7.27986">
        <ele>729.5</ele>
        <time>2014-11-01T10:16:22Z</time>
      </trkpt>
      <trkpt lat="43.91646" lon="7.27967">
        <ele>724.5</ele>
        <time>2014-11-01T10:16:37Z</time>
      </trkpt>
      <trkpt lat="43.91641" lon="7.27962">
        <ele>722.5</ele>
        <time>2014-11-01T10:16:42Z</time>
      </trkpt>
      <trkpt lat="43.91631" lon="7.27945">
        <ele>717.5</ele>
        <time>2014-11-01T10:16:57Z</time>
      </trkpt>
      <trkpt lat="43.91621" lon="7.27931">
        <ele>723.5</ele>
        <time>2014-11-01T10:17:10Z</time>
      </trkpt>
      <trkpt lat="43.91613" lon="7.27925">
        <ele>725.5</ele>
        <time>2014-11-01T10:17:17Z</time>
      </trkpt>
      <trkpt lat="43.9161" lon="7.27918">
        <ele>728.5</ele>
        <time>2014-11-01T10:17:22Z</time>
      </trkpt>
      <trkpt lat="43.91599" lon="7.27903">
        <ele>728.5</ele>
        <time>2014-11-01T10:17:38Z</time>
      </trkpt>
      <trkpt lat="43.91598" lon="7.27902">
        <ele>730.5</ele>
        <time>2014-11-01T10:17:39Z</time>
      </trkpt>
      <trkpt lat="43.91593" lon="7.27882">
        <ele>736.5</ele>
        <time>2014-11-01T10:17:53Z</time>
      </trkpt>
      <trkpt lat="43.91592" lon="7.2788">
        <ele>738.5</ele>
        <time>2014-11-01T10:17:54Z</time>
      </trkpt>
      <trkpt lat="43.91588" lon="7.27859">
        <ele>728.5</ele>
        <time>2014-11-01T10:18:15Z</time>
      </trkpt>
      <trkpt lat="43.91586" lon="7.27853">
        <ele>728.5</ele>
        <time>2014-11-01T10:18:19Z</time>
      </trkpt>
      <trkpt lat="43.9158" lon="7.27834">
        <ele>730.5</ele>
        <time>2014-11-01T10:18:34Z</time>
      </trkpt>
      <trkpt lat="43.91579" lon="7.27825">
        <ele>725.5</ele>
        <time>2014-11-01T10:18:41Z</time>
      </trkpt>
      <trkpt lat="43.91578" lon="7.27817">
        <ele>725.5</ele>
        <time>2014-11-01T10:18:46Z</time>
      </trkpt>
      <trkpt lat="43.91584" lon="7.27798">
        <ele>723.5</ele>
        <time>2014-11-01T10:19:01Z</time>
      </trkpt>
      <trkpt lat="43.91594" lon="7.27783">
        <ele>721.5</ele>
        <time>2014-11-01T10:19:19Z</time>
      </trkpt>
      <trkpt lat="43.91607" lon="7.27772">
        <ele>719.5</ele>
        <time>2014-11-01T10:19:34Z</time>
      </trkpt>
      <trkpt lat="43.91619" lon="7.27762">
        <ele>721.5</ele>
        <time>2014-11-01T10:19:50Z</time>
      </trkpt>
      <trkpt lat="43.91629" lon="7.27746">
        <ele>723.5</ele>
        <time>2014-11-01T10:20:04Z</time>
      </trkpt>
      <trkpt lat="43.91639" lon="7.2773">
        <ele>724.5</ele>
        <time>2014-11-01T10:20:22Z</time>
      </trkpt>
      <trkpt lat="43.91651" lon="7.27715">
        <ele>722.5</ele>
        <time>2014-11-01T10:20:38Z</time>
      </trkpt>
      <trkpt lat="43.91648" lon="7.27693">
        <ele>718.5</ele>
        <time>2014-11-01T10:20:58Z</time>
      </trkpt>
      <trkpt lat="43.91649" lon="7.27692">
        <ele>716.5</ele>
        <time>2014-11-01T10:20:59Z</time>
      </trkpt>
      <trkpt lat="43.91644" lon="7.27672">
        <ele>701.5</ele>
        <time>2014-11-01T10:21:16Z</time>
      </trkpt>
      <trkpt lat="43.91638" lon="7.2766">
        <ele>707.5</ele>
        <time>2014-11-01T10:21:25Z</time>
      </trkpt>
      <trkpt lat="43.91634" lon="7.27655">
        <ele>713.5</ele>
        <time>2014-11-01T10:21:31Z</time>
      </trkpt>
      <trkpt lat="43.9163" lon="7.27635">
        <ele>712.5</ele>
        <time>2014-11-01T10:21:46Z</time>
      </trkpt>
      <trkpt lat="43.91622" lon="7.27618">
        <ele>714.5</ele>
        <time>2014-11-01T10:22:00Z</time>
      </trkpt>
      <trkpt lat="43.91611" lon="7.27606">
        <ele>719.5</ele>
        <time>2014-11-01T10:22:12Z</time>
      </trkpt>
      <trkpt lat="43.9161" lon="7.27603">
        <ele>718.5</ele>
        <time>2014-11-01T10:22:16Z</time>
      </trkpt>
      <trkpt lat="43.91603" lon="7.27596">
        <ele>716.5</ele>
        <time>2014-11-01T10:22:24Z</time>
      </trkpt>
      <trkpt lat="43.91594" lon="7.2758">
        <ele>707.5</ele>
        <time>2014-11-01T10:22:40Z</time>
      </trkpt>
      <trkpt lat="43.91582" lon="7.27569">
        <ele>709.5</ele>
        <time>2014-11-01T10:22:58Z</time>
      </trkpt>
      <trkpt lat="43.91569" lon="7.27575">
        <ele>707.5</ele>
        <time>2014-11-01T10:23:10Z</time>
      </trkpt>
      <trkpt lat="43.91568" lon="7.27573">
        <ele>710.5</ele>
        <time>2014-11-01T10:23:13Z</time>
      </trkpt>
      <trkpt lat="43.91555" lon="7.27562">
        <ele>703.5</ele>
        <time>2014-11-01T10:23:28Z</time>
      </trkpt>
      <trkpt lat="43.91542" lon="7.27553">
        <ele>701.5</ele>
        <time>2014-11-01T10:23:43Z</time>
      </trkpt>
      <trkpt lat="43.91536" lon="7.2755">
        <ele>704.5</ele>
        <time>2014-11-01T10:23:49Z</time>
      </trkpt>
      <trkpt lat="43.91525" lon="7.27537">
        <ele>695.5</ele>
        <time>2014-11-01T10:24:05Z</time>
      </trkpt>
      <trkpt lat="43.91524" lon="7.27534">
        <ele>696.5</ele>
        <time>2014-11-01T10:24:07Z</time>
      </trkpt>
      <trkpt lat="43.91524" lon="7.27514">
        <ele>696.5</ele>
        <time>2014-11-01T10:24:23Z</time>
      </trkpt>
      <trkpt lat="43.91525" lon="7.27511">
        <ele>696.5</ele>
        <time>2014-11-01T10:24:29Z</time>
      </trkpt>
      <trkpt lat="43.91522" lon="7.2749">
        <ele>697.5</ele>
        <time>2014-11-01T10:24:43Z</time>
      </trkpt>
      <trkpt lat="43.91519" lon="7.27469">
        <ele>700.5</ele>
        <time>2014-11-01T10:24:59Z</time>
      </trkpt>
      <trkpt lat="43.91516" lon="7.27448">
        <ele>705.5</ele>
        <time>2014-11-01T10:25:09Z</time>
      </trkpt>
      <trkpt lat="43.91515" lon="7.27427">
        <ele>706.5</ele>
        <time>2014-11-01T10:25:19Z</time>
      </trkpt>
      <trkpt lat="43.91513" lon="7.27421">
        <ele>700.5</ele>
        <time>2014-11-01T10:25:25Z</time>
      </trkpt>
      <trkpt lat="43.91509" lon="7.27401">
        <ele>703.5</ele>
        <time>2014-11-01T10:25:43Z</time>
      </trkpt>
      <trkpt lat="43.91509" lon="7.27401">
        <ele>701.5</ele>
        <time>2014-11-01T10:25:44Z</time>
      </trkpt>
      <trkpt lat="43.91499" lon="7.27387">
        <ele>710.5</ele>
        <time>2014-11-01T10:25:59Z</time>
      </trkpt>
      <trkpt lat="43.91498" lon="7.27378">
        <ele>706.5</ele>
        <time>2014-11-01T10:26:05Z</time>
      </trkpt>
      <trkpt lat="43.91498" lon="7.27373">
        <ele>704.5</ele>
        <time>2014-11-01T10:26:07Z</time>
      </trkpt>
      <trkpt lat="43.91499" lon="7.27352">
        <ele>706.5</ele>
        <time>2014-11-01T10:26:20Z</time>
      </trkpt>
      <trkpt lat="43.91487" lon="7.27339">
        <ele>701.5</ele>
        <time>2014-11-01T10:26:34Z</time>
      </trkpt>
      <trkpt lat="43.91482" lon="7.27319">
        <ele>691.5</ele>
        <time>2014-11-01T10:26:56Z</time>
      </trkpt>
      <trkpt lat="43.91474" lon="7.27311">
        <ele>688.5</ele>
        <time>2014-11-01T10:27:04Z</time>
      </trkpt>
      <trkpt lat="43.91467" lon="7.27292">
        <ele>694.5</ele>
        <time>2014-11-01T10:27:20Z</time>
      </trkpt>
      <trkpt lat="43.91455" lon="7.27281">
        <ele>695.5</ele>
        <time>2014-11-01T10:27:38Z</time>
      </trkpt>
      <trkpt lat="43.91452" lon="7.27282">
        <ele>696.5</ele>
        <time>2014-11-01T10:27:39Z</time>
      </trkpt>
      <trkpt lat="43.91445" lon="7.27263">
        <ele>694.5</ele>
        <time>2014-11-01T10:27:53Z</time>
      </trkpt>
      <trkpt lat="43.9144" lon="7.27261">
        <ele>695.5</ele>
        <time>2014-11-01T10:27:57Z</time>
      </trkpt>
      <trkpt lat="43.91427" lon="7.27251">
        <ele>691.5</ele>
        <time>2014-11-01T10:28:12Z</time>
      </trkpt>
      <trkpt lat="43.91426" lon="7.27246">
        <ele>692.5</ele>
        <time>2014-11-01T10:28:16Z</time>
      </trkpt>
      <trkpt lat="43.91411" lon="7.27248">
        <ele>690.5</ele>
        <time>2014-11-01T10:28:28Z</time>
      </trkpt>
      <trkpt lat="43.91414" lon="7.27228">
        <ele>692.5</ele>
        <time>2014-11-01T10:28:40Z</time>
      </trkpt>
      <trkpt lat="43.91413" lon="7.27226">
        <ele>693.5</ele>
        <time>2014-11-01T10:28:42Z</time>
      </trkpt>
      <trkpt lat="43.91412" lon="7.27221">
        <ele>696.5</ele>
        <time>2014-11-01T10:28:45Z</time>
      </trkpt>
      <trkpt lat="43.91408" lon="7.272">
        <ele>693.5</ele>
        <time>2014-11-01T10:28:58Z</time>
      </trkpt>
      <trkpt lat="43.91406" lon="7.2718">
        <ele>702.5</ele>
        <time>2014-11-01T10:29:09Z</time>
      </trkpt>
      <trkpt lat="43.91406" lon="7.2716">
        <ele>686.5</ele>
        <time>2014-11-01T10:29:29Z</time>
      </trkpt>
      <trkpt lat="43.91413" lon="7.27142">
        <ele>684.5</ele>
        <time>2014-11-01T10:29:46Z</time>
      </trkpt>
      <trkpt lat="43.91422" lon="7.27126">
        <ele>678.5</ele>
        <time>2014-11-01T10:30:04Z</time>
      </trkpt>
      <trkpt lat="43.91425" lon="7.27106">
        <ele>674.5</ele>
        <time>2014-11-01T10:30:20Z</time>
      </trkpt>
      <trkpt lat="43.91431" lon="7.27088">
        <ele>669.5</ele>
        <time>2014-11-01T10:30:37Z</time>
      </trkpt>
      <trkpt lat="43.91433" lon="7.27067">
        <ele>669.5</ele>
        <time>2014-11-01T10:30:53Z</time>
      </trkpt>
      <trkpt lat="43.91434" lon="7.27046">
        <ele>672.5</ele>
        <time>2014-11-01T10:31:09Z</time>
      </trkpt>
      <trkpt lat="43.91431" lon="7.27026">
        <ele>670.5</ele>
        <time>2014-11-01T10:31:24Z</time>
      </trkpt>
      <trkpt lat="43.91426" lon="7.27006">
        <ele>671.5</ele>
        <time>2014-11-01T10:31:59Z</time>
      </trkpt>
      <trkpt lat="43.91419" lon="7.26989">
        <ele>668.5</ele>
        <time>2014-11-01T10:43:14Z</time>
      </trkpt>
      <trkpt lat="43.91429" lon="7.26976">
        <ele>656.5</ele>
        <time>2014-11-01T10:43:57Z</time>
      </trkpt>
      <trkpt lat="43.91436" lon="7.26958">
        <ele>648.5</ele>
        <time>2014-11-01T10:44:34Z</time>
      </trkpt>
      <trkpt lat="43.91429" lon="7.2694">
        <ele>642.5</ele>
        <time>2014-11-01T10:44:52Z</time>
      </trkpt>
      <trkpt lat="43.91428" lon="7.26932">
        <ele>643.5</ele>
        <time>2014-11-01T10:44:56Z</time>
      </trkpt>
      <trkpt lat="43.91429" lon="7.26912">
        <ele>631.5</ele>
        <time>2014-11-01T10:45:19Z</time>
      </trkpt>
      <trkpt lat="43.9143" lon="7.26908">
        <ele>631.5</ele>
        <time>2014-11-01T10:45:20Z</time>
      </trkpt>
      <trkpt lat="43.91433" lon="7.26889">
        <ele>629.5</ele>
        <time>2014-11-01T10:45:32Z</time>
      </trkpt>
      <trkpt lat="43.91431" lon="7.2688">
        <ele>632.5</ele>
        <time>2014-11-01T10:45:37Z</time>
      </trkpt>
      <trkpt lat="43.91423" lon="7.26863">
        <ele>634.5</ele>
        <time>2014-11-01T10:45:54Z</time>
      </trkpt>
      <trkpt lat="43.91422" lon="7.26862">
        <ele>633.5</ele>
        <time>2014-11-01T10:45:55Z</time>
      </trkpt>
      <trkpt lat="43.91432" lon="7.26877">
        <ele>627.5</ele>
        <time>2014-11-01T10:46:20Z</time>
      </trkpt>
      <trkpt lat="43.9144" lon="7.26895">
        <ele>622.5</ele>
        <time>2014-11-01T10:46:37Z</time>
      </trkpt>
      <trkpt lat="43.91446" lon="7.26914">
        <ele>622.5</ele>
        <time>2014-11-01T10:46:53Z</time>
      </trkpt>
      <trkpt lat="43.91455" lon="7.2693">
        <ele>616.5</ele>
        <time>2014-11-01T10:47:10Z</time>
      </trkpt>
      <trkpt lat="43.91469" lon="7.26935">
        <ele>610.5</ele>
        <time>2014-11-01T10:47:29Z</time>
      </trkpt>
      <trkpt lat="43.91483" lon="7.26928">
        <ele>606.5</ele>
        <time>2014-11-01T10:47:49Z</time>
      </trkpt>
      <trkpt lat="43.91497" lon="7.2692">
        <ele>602.5</ele>
        <time>2014-11-01T10:48:05Z</time>
      </trkpt>
      <trkpt lat="43.9151" lon="7.26929">
        <ele>598.5</ele>
        <time>2014-11-01T10:48:28Z</time>
      </trkpt>
      <trkpt lat="43.91516" lon="7.26949">
        <ele>596.5</ele>
        <time>2014-11-01T10:48:45Z</time>
      </trkpt>
      <trkpt lat="43.91524" lon="7.26965">
        <ele>593.5</ele>
        <time>2014-11-01T10:49:05Z</time>
      </trkpt>
      <trkpt lat="43.91535" lon="7.26979">
        <ele>592.5</ele>
        <time>2014-11-01T10:49:21Z</time>
      </trkpt>
      <trkpt lat="43.91549" lon="7.26986">
        <ele>590.5</ele>
        <time>2014-11-01T10:49:37Z</time>
      </trkpt>
      <trkpt lat="43.91563" lon="7.26994">
        <ele>589.5</ele>
        <time>2014-11-01T10:49:53Z</time>
      </trkpt>
      <trkpt lat="43.91578" lon="7.26997">
        <ele>584.5</ele>
        <time>2014-11-01T10:50:14Z</time>
      </trkpt>
      <trkpt lat="43.91589" lon="7.27011">
        <ele>578.5</ele>
        <time>2014-11-01T10:50:33Z</time>
      </trkpt>
      <trkpt lat="43.91593" lon="7.2703">
        <ele>576.5</ele>
        <time>2014-11-01T10:50:55Z</time>
      </trkpt>
      <trkpt lat="43.91607" lon="7.27038">
        <ele>575.5</ele>
        <time>2014-11-01T10:51:14Z</time>
      </trkpt>
      <trkpt lat="43.91623" lon="7.27037">
        <ele>576.5</ele>
        <time>2014-11-01T10:51:33Z</time>
      </trkpt>
      <trkpt lat="43.91638" lon="7.27036">
        <ele>570.5</ele>
        <time>2014-11-01T10:51:51Z</time>
      </trkpt>
      <trkpt lat="43.91651" lon="7.27045">
        <ele>561.5</ele>
        <time>2014-11-01T10:52:15Z</time>
      </trkpt>
      <trkpt lat="43.91665" lon="7.27048">
        <ele>554.5</ele>
        <time>2014-11-01T10:52:30Z</time>
      </trkpt>
      <trkpt lat="43.91679" lon="7.2704">
        <ele>548.5</ele>
        <time>2014-11-01T10:52:46Z</time>
      </trkpt>
      <trkpt lat="43.91681" lon="7.27033">
        <ele>549.5</ele>
        <time>2014-11-01T10:52:51Z</time>
      </trkpt>
      <trkpt lat="43.91692" lon="7.27019">
        <ele>537.5</ele>
        <time>2014-11-01T10:53:16Z</time>
      </trkpt>
      <trkpt lat="43.91696" lon="7.27017">
        <ele>536.5</ele>
        <time>2014-11-01T10:53:19Z</time>
      </trkpt>
      <trkpt lat="43.91707" lon="7.27003">
        <ele>531.5</ele>
        <time>2014-11-01T10:53:39Z</time>
      </trkpt>
      <trkpt lat="43.91694" lon="7.26993">
        <ele>533.5</ele>
        <time>2014-11-01T10:54:17Z</time>
      </trkpt>
      <trkpt lat="43.917" lon="7.26974">
        <ele>533.5</ele>
        <time>2014-11-01T10:54:43Z</time>
      </trkpt>
      <trkpt lat="43.91702" lon="7.26975">
        <ele>529.5</ele>
        <time>2014-11-01T10:54:45Z</time>
      </trkpt>
      <trkpt lat="43.91704" lon="7.26954">
        <ele>525.5</ele>
        <time>2014-11-01T10:55:25Z</time>
      </trkpt>
      <trkpt lat="43.9169" lon="7.26953">
        <ele>523.5</ele>
        <time>2014-11-01T10:55:51Z</time>
      </trkpt>
      <trkpt lat="43.91677" lon="7.26962">
        <ele>522.5</ele>
        <time>2014-11-01T10:56:06Z</time>
      </trkpt>
      <trkpt lat="43.91662" lon="7.26962">
        <ele>520.5</ele>
        <time>2014-11-01T10:56:33Z</time>
      </trkpt>
      <trkpt lat="43.91663" lon="7.26961">
        <ele>521.5</ele>
        <time>2014-11-01T10:56:34Z</time>
      </trkpt>
      <trkpt lat="43.91657" lon="7.26956">
        <ele>522.5</ele>
        <time>2014-11-01T10:56:47Z</time>
      </trkpt>
      <trkpt lat="43.91659" lon="7.26936">
        <ele>519.5</ele>
        <time>2014-11-01T10:57:15Z</time>
      </trkpt>
      <trkpt lat="43.91661" lon="7.26935">
        <ele>517.5</ele>
        <time>2014-11-01T10:57:17Z</time>
      </trkpt>
      <trkpt lat="43.91671" lon="7.2692">
        <ele>476.5</ele>
        <time>2014-11-01T10:58:52Z</time>
      </trkpt>
      <trkpt lat="43.91669" lon="7.26917">
        <ele>476.5</ele>
        <time>2014-11-01T10:58:56Z</time>
      </trkpt>
      <trkpt lat="43.9166" lon="7.26901">
        <ele>475.5</ele>
        <time>2014-11-01T10:59:15Z</time>
      </trkpt>
      <trkpt lat="43.91662" lon="7.26885">
        <ele>461.5</ele>
        <time>2014-11-01T10:59:39Z</time>
      </trkpt>
      <trkpt lat="43.91675" lon="7.26878">
        <ele>456.5</ele>
        <time>2014-11-01T11:00:09Z</time>
      </trkpt>
      <trkpt lat="43.91688" lon="7.26865">
        <ele>452.5</ele>
        <time>2014-11-01T11:00:32Z</time>
      </trkpt>
      <trkpt lat="43.91689" lon="7.26864">
        <ele>451.5</ele>
        <time>2014-11-01T11:00:33Z</time>
      </trkpt>
      <trkpt lat="43.91689" lon="7.26844">
        <ele>455.5</ele>
        <time>2014-11-01T11:00:54Z</time>
      </trkpt>
      <trkpt lat="43.91693" lon="7.26836">
        <ele>462.5</ele>
        <time>2014-11-01T11:01:01Z</time>
      </trkpt>
      <trkpt lat="43.91697" lon="7.26829">
        <ele>463.5</ele>
        <time>2014-11-01T11:01:05Z</time>
      </trkpt>
      <trkpt lat="43.9171" lon="7.26823">
        <ele>462.5</ele>
        <time>2014-11-01T11:01:21Z</time>
      </trkpt>
      <trkpt lat="43.91726" lon="7.26823">
        <ele>450.5</ele>
        <time>2014-11-01T11:01:44Z</time>
      </trkpt>
      <trkpt lat="43.9174" lon="7.26828">
        <ele>447.5</ele>
        <time>2014-11-01T11:01:58Z</time>
      </trkpt>
      <trkpt lat="43.91753" lon="7.26836">
        <ele>449.5</ele>
        <time>2014-11-01T11:02:20Z</time>
      </trkpt>
      <trkpt lat="43.91765" lon="7.26851">
        <ele>438.5</ele>
        <time>2014-11-01T11:02:42Z</time>
      </trkpt>
      <trkpt lat="43.91772" lon="7.26855">
        <ele>434.5</ele>
        <time>2014-11-01T11:02:48Z</time>
      </trkpt>
      <trkpt lat="43.91785" lon="7.26863">
        <ele>430.5</ele>
        <time>2014-11-01T11:03:03Z</time>
      </trkpt>
      <trkpt lat="43.91795" lon="7.26879">
        <ele>421.5</ele>
        <time>2014-11-01T11:03:22Z</time>
      </trkpt>
      <trkpt lat="43.91802" lon="7.26897">
        <ele>424.5</ele>
        <time>2014-11-01T11:03:37Z</time>
      </trkpt>
      <trkpt lat="43.91808" lon="7.26912">
        <ele>423.5</ele>
        <time>2014-11-01T11:03:51Z</time>
      </trkpt>
      <trkpt lat="43.91818" lon="7.26929">
        <ele>413.5</ele>
        <time>2014-11-01T11:04:10Z</time>
      </trkpt>
      <trkpt lat="43.91829" lon="7.26941">
        <ele>408.5</ele>
        <time>2014-11-01T11:04:27Z</time>
      </trkpt>
      <trkpt lat="43.91841" lon="7.26954">
        <ele>412.5</ele>
        <time>2014-11-01T11:04:46Z</time>
      </trkpt>
      <trkpt lat="43.91851" lon="7.26957">
        <ele>413.5</ele>
        <time>2014-11-01T11:04:53Z</time>
      </trkpt>
      <trkpt lat="43.91866" lon="7.26948">
        <ele>408.5</ele>
        <time>2014-11-01T11:05:59Z</time>
      </trkpt>
      <trkpt lat="43.91873" lon="7.26943">
        <ele>406.5</ele>
        <time>2014-11-01T11:06:12Z</time>
      </trkpt>
      <trkpt lat="43.91888" lon="7.26942">
        <ele>396.5</ele>
        <time>2014-11-01T11:06:30Z</time>
      </trkpt>
      <trkpt lat="43.91893" lon="7.26942">
        <ele>392.5</ele>
        <time>2014-11-01T11:06:35Z</time>
      </trkpt>
      <trkpt lat="43.91891" lon="7.26927">
        <ele>394.5</ele>
        <time>2014-11-01T11:06:49Z</time>
      </trkpt>
      <trkpt lat="43.91906" lon="7.26928">
        <ele>370.5</ele>
        <time>2014-11-01T11:07:14Z</time>
      </trkpt>
      <trkpt lat="43.91903" lon="7.26919">
        <ele>370.5</ele>
        <time>2014-11-01T11:07:36Z</time>
      </trkpt>
      <trkpt lat="43.91906" lon="7.26898">
        <ele>365.5</ele>
        <time>2014-11-01T11:08:26Z</time>
      </trkpt>
      <trkpt lat="43.91909" lon="7.26893">
        <ele>365.5</ele>
        <time>2014-11-01T11:08:33Z</time>
      </trkpt>
      <trkpt lat="43.91916" lon="7.26875">
        <ele>361.5</ele>
        <time>2014-11-01T11:08:56Z</time>
      </trkpt>
      <trkpt lat="43.91923" lon="7.26856">
        <ele>360.5</ele>
        <time>2014-11-01T11:09:04Z</time>
      </trkpt>
      <trkpt lat="43.91926" lon="7.26844">
        <ele>361.5</ele>
        <time>2014-11-01T11:09:11Z</time>
      </trkpt>
      <trkpt lat="43.91932" lon="7.26823">
        <ele>360.5</ele>
        <time>2014-11-01T11:09:27Z</time>
      </trkpt>
      <trkpt lat="43.91943" lon="7.26808">
        <ele>357.5</ele>
        <time>2014-11-01T11:09:37Z</time>
      </trkpt>
      <trkpt lat="43.91945" lon="7.26799">
        <ele>359.5</ele>
        <time>2014-11-01T11:09:46Z</time>
      </trkpt>
      <trkpt lat="43.91947" lon="7.26797">
        <ele>358.5</ele>
        <time>2014-11-01T11:09:52Z</time>
      </trkpt>
      <trkpt lat="43.91952" lon="7.26778">
        <ele>363.5</ele>
        <time>2014-11-01T11:10:10Z</time>
      </trkpt>
      <trkpt lat="43.91953" lon="7.26771">
        <ele>367.5</ele>
        <time>2014-11-01T11:10:13Z</time>
      </trkpt>
      <trkpt lat="43.91957" lon="7.26767">
        <ele>364.5</ele>
        <time>2014-11-01T11:10:18Z</time>
      </trkpt>
      <trkpt lat="43.91949" lon="7.2675">
        <ele>369.5</ele>
        <time>2014-11-01T11:12:44Z</time>
      </trkpt>
      <trkpt lat="43.91945" lon="7.26731">
        <ele>358.5</ele>
        <time>2014-11-01T11:13:32Z</time>
      </trkpt>
      <trkpt lat="43.91952" lon="7.26726">
        <ele>360.5</ele>
        <time>2014-11-01T11:13:38Z</time>
      </trkpt>
      <trkpt lat="43.9195" lon="7.26712">
        <ele>360.5</ele>
        <time>2014-11-01T11:14:16Z</time>
      </trkpt>
      <trkpt lat="43.9195" lon="7.26712">
        <ele>360.5</ele>
        <time>2014-11-01T11:14:18Z</time>
      </trkpt>
      <trkpt lat="43.91964" lon="7.26715">
        <ele>351.5</ele>
        <time>2014-11-01T11:14:43Z</time>
      </trkpt>
      <trkpt lat="43.91967" lon="7.26714">
        <ele>353.5</ele>
        <time>2014-11-01T11:14:45Z</time>
      </trkpt>
      <trkpt lat="43.91982" lon="7.26714">
        <ele>347.5</ele>
        <time>2014-11-01T11:14:55Z</time>
      </trkpt>
      <trkpt lat="43.91995" lon="7.26705">
        <ele>345.5</ele>
        <time>2014-11-01T11:15:17Z</time>
      </trkpt>
      <trkpt lat="43.92001" lon="7.26687">
        <ele>331.5</ele>
        <time>2014-11-01T11:15:44Z</time>
      </trkpt>
      <trkpt lat="43.92008" lon="7.26669">
        <ele>327.5</ele>
        <time>2014-11-01T11:16:05Z</time>
      </trkpt>
      <trkpt lat="43.92006" lon="7.26649">
        <ele>331.5</ele>
        <time>2014-11-01T11:16:34Z</time>
      </trkpt>
      <trkpt lat="43.92002" lon="7.26629">
        <ele>319.5</ele>
        <time>2014-11-01T11:17:09Z</time>
      </trkpt>
      <trkpt lat="43.92004" lon="7.26609">
        <ele>313.5</ele>
        <time>2014-11-01T11:17:41Z</time>
      </trkpt>
      <trkpt lat="43.92003" lon="7.26593">
        <ele>315.5</ele>
        <time>2014-11-01T11:17:48Z</time>
      </trkpt>
      <trkpt lat="43.92004" lon="7.26589">
        <ele>315.5</ele>
        <time>2014-11-01T11:17:50Z</time>
      </trkpt>
      <trkpt lat="43.91996" lon="7.26572">
        <ele>307.5</ele>
        <time>2014-11-01T11:18:20Z</time>
      </trkpt>
      <trkpt lat="43.91995" lon="7.26572">
        <ele>306.5</ele>
        <time>2014-11-01T11:18:21Z</time>
      </trkpt>
      <trkpt lat="43.91981" lon="7.26564">
        <ele>309.5</ele>
        <time>2014-11-01T11:18:34Z</time>
      </trkpt>
      <trkpt lat="43.91976" lon="7.26545">
        <ele>303.5</ele>
        <time>2014-11-01T11:19:13Z</time>
      </trkpt>
      <trkpt lat="43.91988" lon="7.26533">
        <ele>296.5</ele>
        <time>2014-11-01T11:19:30Z</time>
      </trkpt>
      <trkpt lat="43.91994" lon="7.26514">
        <ele>297.5</ele>
        <time>2014-11-01T11:19:59Z</time>
      </trkpt>
      <trkpt lat="43.92004" lon="7.265">
        <ele>296.5</ele>
        <time>2014-11-01T11:20:26Z</time>
      </trkpt>
      <trkpt lat="43.91998" lon="7.26481">
        <ele>295.5</ele>
        <time>2014-11-01T11:20:37Z</time>
      </trkpt>
      <trkpt lat="43.91988" lon="7.26468">
        <ele>296.5</ele>
        <time>2014-11-01T11:20:47Z</time>
      </trkpt>
      <trkpt lat="43.91986" lon="7.26463">
        <ele>296.5</ele>
        <time>2014-11-01T11:20:50Z</time>
      </trkpt>
      <trkpt lat="43.91984" lon="7.26454">
        <ele>298.5</ele>
        <time>2014-11-01T11:20:54Z</time>
      </trkpt>
      <trkpt lat="43.91972" lon="7.26443">
        <ele>298.5</ele>
        <time>2014-11-01T11:21:24Z</time>
      </trkpt>
      <trkpt lat="43.91961" lon="7.26427">
        <ele>299.5</ele>
        <time>2014-11-01T11:21:35Z</time>
      </trkpt>
      <trkpt lat="43.9196" lon="7.26427">
        <ele>297.5</ele>
        <time>2014-11-01T11:21:36Z</time>
      </trkpt>
      <trkpt lat="43.91949" lon="7.26414">
        <ele>297.5</ele>
        <time>2014-11-01T11:21:50Z</time>
      </trkpt>
      <trkpt lat="43.91938" lon="7.264">
        <ele>301.5</ele>
        <time>2014-11-01T11:22:12Z</time>
      </trkpt>
      <trkpt lat="43.91925" lon="7.26389">
        <ele>304.5</ele>
        <time>2014-11-01T11:22:24Z</time>
      </trkpt>
      <trkpt lat="43.91921" lon="7.26384">
        <ele>301.5</ele>
        <time>2014-11-01T11:22:33Z</time>
      </trkpt>
      <trkpt lat="43.91919" lon="7.26385">
        <ele>297.5</ele>
        <time>2014-11-01T11:22:39Z</time>
      </trkpt>
      <trkpt lat="43.91906" lon="7.26375">
        <ele>294.5</ele>
        <time>2014-11-01T11:22:55Z</time>
      </trkpt>
      <trkpt lat="43.91896" lon="7.26366">
        <ele>293.5</ele>
        <time>2014-11-01T11:23:06Z</time>
      </trkpt>
      <trkpt lat="43.91883" lon="7.26354">
        <ele>296.5</ele>
        <time>2014-11-01T11:23:17Z</time>
      </trkpt>
      <trkpt lat="43.9187" lon="7.26343">
        <ele>296.5</ele>
        <time>2014-11-01T11:23:30Z</time>
      </trkpt>
      <trkpt lat="43.91855" lon="7.2634">
        <ele>303.5</ele>
        <time>2014-11-01T11:23:41Z</time>
      </trkpt>
      <trkpt lat="43.91842" lon="7.26349">
        <ele>300.5</ele>
        <time>2014-11-01T11:23:57Z</time>
      </trkpt>
      <trkpt lat="43.91856" lon="7.26343">
        <ele>302.5</ele>
        <time>2014-11-01T11:24:36Z</time>
      </trkpt>
      <trkpt lat="43.91871" lon="7.26342">
        <ele>299.5</ele>
        <time>2014-11-01T11:25:15Z</time>
      </trkpt>
      <trkpt lat="43.91884" lon="7.26349">
        <ele>299.5</ele>
        <time>2014-11-01T11:25:26Z</time>
      </trkpt>
      <trkpt lat="43.91886" lon="7.2635">
        <ele>299.5</ele>
        <time>2014-11-01T11:25:27Z</time>
      </trkpt>
      <trkpt lat="43.9189" lon="7.26352">
        <ele>300.5</ele>
        <time>2014-11-01T11:25:34Z</time>
      </trkpt>
      <trkpt lat="43.91903" lon="7.26367">
        <ele>299.5</ele>
        <time>2014-11-01T11:26:55Z</time>
      </trkpt>
      <trkpt lat="43.91903" lon="7.26366">
        <ele>299.5</ele>
        <time>2014-11-01T11:26:56Z</time>
      </trkpt>
      <trkpt lat="43.91918" lon="7.26363">
        <ele>292.5</ele>
        <time>2014-11-01T11:27:09Z</time>
      </trkpt>
      <trkpt lat="43.91914" lon="7.2637">
        <ele>291.5</ele>
        <time>2014-11-01T11:28:00Z</time>
      </trkpt>
      <trkpt lat="43.91914" lon="7.26369">
        <ele>291.5</ele>
        <time>2014-11-01T11:28:35Z</time>
      </trkpt>
      <trkpt lat="43.91914" lon="7.26369">
        <ele>291.5</ele>
        <time>2014-11-01T11:28:36Z</time>
      </trkpt>
      <trkpt lat="43.91914" lon="7.26369">
        <ele>291.5</ele>
        <time>2014-11-01T11:28:38Z</time>
      </trkpt>
      <trkpt lat="43.91915" lon="7.26367">
        <ele>291.5</ele>
        <time>2014-11-01T11:30:02Z</time>
      </trkpt>
      <trkpt lat="43.91926" lon="7.26381">
        <ele>314.5</ele>
        <time>2014-11-01T12:21:28Z</time>
      </trkpt>
      <trkpt lat="43.91941" lon="7.26385">
        <ele>317.5</ele>
        <time>2014-11-01T12:21:50Z</time>
      </trkpt>
      <trkpt lat="43.9195" lon="7.26367">
        <ele>310.5</ele>
        <time>2014-11-01T12:21:59Z</time>
      </trkpt>
      <trkpt lat="43.91957" lon="7.26348">
        <ele>311.5</ele>
        <time>2014-11-01T12:22:27Z</time>
      </trkpt>
      <trkpt lat="43.91959" lon="7.26344">
        <ele>314.5</ele>
        <time>2014-11-01T12:22:31Z</time>
      </trkpt>
      <trkpt lat="43.91963" lon="7.2634">
        <ele>319.5</ele>
        <time>2014-11-01T12:22:34Z</time>
      </trkpt>
      <trkpt lat="43.91977" lon="7.26331">
        <ele>313.5</ele>
        <time>2014-11-01T12:22:43Z</time>
      </trkpt>
      <trkpt lat="43.91992" lon="7.26326">
        <ele>320.5</ele>
        <time>2014-11-01T12:22:58Z</time>
      </trkpt>
      <trkpt lat="43.92006" lon="7.26325">
        <ele>321.5</ele>
        <time>2014-11-01T12:23:09Z</time>
      </trkpt>
      <trkpt lat="43.92021" lon="7.26326">
        <ele>318.5</ele>
        <time>2014-11-01T12:23:21Z</time>
      </trkpt>
      <trkpt lat="43.92036" lon="7.26332">
        <ele>310.5</ele>
        <time>2014-11-01T12:23:35Z</time>
      </trkpt>
      <trkpt lat="43.92049" lon="7.26342">
        <ele>316.5</ele>
        <time>2014-11-01T12:23:47Z</time>
      </trkpt>
      <trkpt lat="43.92063" lon="7.2635">
        <ele>317.5</ele>
        <time>2014-11-01T12:23:59Z</time>
      </trkpt>
      <trkpt lat="43.92077" lon="7.26362">
        <ele>318.5</ele>
        <time>2014-11-01T12:24:13Z</time>
      </trkpt>
      <trkpt lat="43.92089" lon="7.26376">
        <ele>318.5</ele>
        <time>2014-11-01T12:24:25Z</time>
      </trkpt>
      <trkpt lat="43.92097" lon="7.26395">
        <ele>317.5</ele>
        <time>2014-11-01T12:24:39Z</time>
      </trkpt>
      <trkpt lat="43.92111" lon="7.26404">
        <ele>311.5</ele>
        <time>2014-11-01T12:24:52Z</time>
      </trkpt>
      <trkpt lat="43.92109" lon="7.26385">
        <ele>311.5</ele>
        <time>2014-11-01T12:25:16Z</time>
      </trkpt>
      <trkpt lat="43.92096" lon="7.26373">
        <ele>314.5</ele>
        <time>2014-11-01T12:25:30Z</time>
      </trkpt>
      <trkpt lat="43.92083" lon="7.26364">
        <ele>318.5</ele>
        <time>2014-11-01T12:25:42Z</time>
      </trkpt>
      <trkpt lat="43.92071" lon="7.26352">
        <ele>320.5</ele>
        <time>2014-11-01T12:25:55Z</time>
      </trkpt>
      <trkpt lat="43.92062" lon="7.26335">
        <ele>322.5</ele>
        <time>2014-11-01T12:26:16Z</time>
      </trkpt>
      <trkpt lat="43.9205" lon="7.26323">
        <ele>330.5</ele>
        <time>2014-11-01T12:26:52Z</time>
      </trkpt>
      <trkpt lat="43.92042" lon="7.26307">
        <ele>331.5</ele>
        <time>2014-11-01T12:27:15Z</time>
      </trkpt>
      <trkpt lat="43.92029" lon="7.26296">
        <ele>337.5</ele>
        <time>2014-11-01T12:27:34Z</time>
      </trkpt>
      <trkpt lat="43.92015" lon="7.2629">
        <ele>341.5</ele>
        <time>2014-11-01T12:27:55Z</time>
      </trkpt>
      <trkpt lat="43.92" lon="7.26288">
        <ele>344.5</ele>
        <time>2014-11-01T12:28:12Z</time>
      </trkpt>
      <trkpt lat="43.91986" lon="7.26282">
        <ele>344.5</ele>
        <time>2014-11-01T12:28:28Z</time>
      </trkpt>
      <trkpt lat="43.91972" lon="7.26276">
        <ele>345.5</ele>
        <time>2014-11-01T12:28:44Z</time>
      </trkpt>
      <trkpt lat="43.91959" lon="7.26266">
        <ele>347.5</ele>
        <time>2014-11-01T12:29:06Z</time>
      </trkpt>
      <trkpt lat="43.91945" lon="7.26275">
        <ele>343.5</ele>
        <time>2014-11-01T12:29:23Z</time>
      </trkpt>
      <trkpt lat="43.91931" lon="7.26271">
        <ele>344.5</ele>
        <time>2014-11-01T12:30:00Z</time>
      </trkpt>
      <trkpt lat="43.91919" lon="7.26259">
        <ele>347.5</ele>
        <time>2014-11-01T12:30:15Z</time>
      </trkpt>
      <trkpt lat="43.91912" lon="7.26241">
        <ele>351.5</ele>
        <time>2014-11-01T12:30:32Z</time>
      </trkpt>
      <trkpt lat="43.91905" lon="7.26223">
        <ele>346.5</ele>
        <time>2014-11-01T12:30:45Z</time>
      </trkpt>
      <trkpt lat="43.91898" lon="7.26204">
        <ele>346.5</ele>
        <time>2014-11-01T12:31:03Z</time>
      </trkpt>
      <trkpt lat="43.91887" lon="7.26191">
        <ele>348.5</ele>
        <time>2014-11-01T12:31:17Z</time>
      </trkpt>
      <trkpt lat="43.91872" lon="7.26189">
        <ele>349.5</ele>
        <time>2014-11-01T12:31:32Z</time>
      </trkpt>
      <trkpt lat="43.91857" lon="7.26188">
        <ele>353.5</ele>
        <time>2014-11-01T12:31:49Z</time>
      </trkpt>
      <trkpt lat="43.91845" lon="7.26176">
        <ele>355.5</ele>
        <time>2014-11-01T12:32:14Z</time>
      </trkpt>
      <trkpt lat="43.91832" lon="7.26167">
        <ele>357.5</ele>
        <time>2014-11-01T12:32:33Z</time>
      </trkpt>
      <trkpt lat="43.91818" lon="7.26159">
        <ele>362.5</ele>
        <time>2014-11-01T12:32:52Z</time>
      </trkpt>
      <trkpt lat="43.9181" lon="7.26143">
        <ele>366.5</ele>
        <time>2014-11-01T12:33:16Z</time>
      </trkpt>
      <trkpt lat="43.91814" lon="7.26122">
        <ele>364.5</ele>
        <time>2014-11-01T12:34:00Z</time>
      </trkpt>
      <trkpt lat="43.91828" lon="7.26114">
        <ele>367.5</ele>
        <time>2014-11-01T12:34:21Z</time>
      </trkpt>
      <trkpt lat="43.91837" lon="7.26098">
        <ele>372.5</ele>
        <time>2014-11-01T12:34:45Z</time>
      </trkpt>
      <trkpt lat="43.91849" lon="7.26085">
        <ele>380.5</ele>
        <time>2014-11-01T12:35:43Z</time>
      </trkpt>
      <trkpt lat="43.91858" lon="7.26103">
        <ele>386.5</ele>
        <time>2014-11-01T12:36:12Z</time>
      </trkpt>
      <trkpt lat="43.9187" lon="7.26089">
        <ele>385.5</ele>
        <time>2014-11-01T12:37:04Z</time>
      </trkpt>
      <trkpt lat="43.91886" lon="7.26086">
        <ele>384.5</ele>
        <time>2014-11-01T12:37:15Z</time>
      </trkpt>
      <trkpt lat="43.91894" lon="7.26069">
        <ele>398.5</ele>
        <time>2014-11-01T12:38:10Z</time>
      </trkpt>
      <trkpt lat="43.91908" lon="7.26064">
        <ele>400.5</ele>
        <time>2014-11-01T12:38:26Z</time>
      </trkpt>
      <trkpt lat="43.91914" lon="7.26046">
        <ele>408.5</ele>
        <time>2014-11-01T12:39:10Z</time>
      </trkpt>
      <trkpt lat="43.91926" lon="7.26056">
        <ele>409.5</ele>
        <time>2014-11-01T12:39:36Z</time>
      </trkpt>
      <trkpt lat="43.9194" lon="7.26066">
        <ele>408.5</ele>
        <time>2014-11-01T12:40:02Z</time>
      </trkpt>
      <trkpt lat="43.91954" lon="7.26071">
        <ele>409.5</ele>
        <time>2014-11-01T12:40:14Z</time>
      </trkpt>
      <trkpt lat="43.9197" lon="7.26071">
        <ele>411.5</ele>
        <time>2014-11-01T12:40:36Z</time>
      </trkpt>
      <trkpt lat="43.91985" lon="7.26069">
        <ele>421.5</ele>
        <time>2014-11-01T12:40:48Z</time>
      </trkpt>
      <trkpt lat="43.92" lon="7.26072">
        <ele>423.5</ele>
        <time>2014-11-01T12:41:08Z</time>
      </trkpt>
      <trkpt lat="43.92013" lon="7.26081">
        <ele>430.5</ele>
        <time>2014-11-01T12:41:28Z</time>
      </trkpt>
      <trkpt lat="43.92027" lon="7.26078">
        <ele>426.5</ele>
        <time>2014-11-01T12:41:46Z</time>
      </trkpt>
      <trkpt lat="43.92042" lon="7.26075">
        <ele>429.5</ele>
        <time>2014-11-01T12:42:15Z</time>
      </trkpt>
      <trkpt lat="43.92056" lon="7.2607">
        <ele>444.5</ele>
        <time>2014-11-01T12:43:04Z</time>
      </trkpt>
      <trkpt lat="43.92062" lon="7.2609">
        <ele>445.5</ele>
        <time>2014-11-01T12:43:26Z</time>
      </trkpt>
      <trkpt lat="43.92068" lon="7.26108">
        <ele>441.5</ele>
        <time>2014-11-01T12:44:04Z</time>
      </trkpt>
      <trkpt lat="43.92082" lon="7.26114">
        <ele>444.5</ele>
        <time>2014-11-01T12:44:41Z</time>
      </trkpt>
      <trkpt lat="43.92088" lon="7.26095">
        <ele>453.5</ele>
        <time>2014-11-01T12:45:06Z</time>
      </trkpt>
      <trkpt lat="43.92091" lon="7.26076">
        <ele>458.5</ele>
        <time>2014-11-01T12:45:26Z</time>
      </trkpt>
      <trkpt lat="43.92106" lon="7.26075">
        <ele>452.5</ele>
        <time>2014-11-01T12:45:41Z</time>
      </trkpt>
      <trkpt lat="43.92099" lon="7.26058">
        <ele>465.5</ele>
        <time>2014-11-01T12:46:05Z</time>
      </trkpt>
      <trkpt lat="43.92109" lon="7.26042">
        <ele>463.5</ele>
        <time>2014-11-01T12:46:30Z</time>
      </trkpt>
      <trkpt lat="43.92099" lon="7.26027">
        <ele>477.5</ele>
        <time>2014-11-01T12:47:12Z</time>
      </trkpt>
      <trkpt lat="43.9211" lon="7.26014">
        <ele>475.5</ele>
        <time>2014-11-01T12:47:36Z</time>
      </trkpt>
      <trkpt lat="43.92106" lon="7.25994">
        <ele>485.5</ele>
        <time>2014-11-01T12:48:15Z</time>
      </trkpt>
      <trkpt lat="43.92119" lon="7.25984">
        <ele>486.5</ele>
        <time>2014-11-01T12:48:37Z</time>
      </trkpt>
      <trkpt lat="43.92128" lon="7.25967">
        <ele>488.5</ele>
        <time>2014-11-01T12:48:56Z</time>
      </trkpt>
      <trkpt lat="43.92112" lon="7.25966">
        <ele>502.5</ele>
        <time>2014-11-01T12:49:28Z</time>
      </trkpt>
      <trkpt lat="43.92101" lon="7.25953">
        <ele>506.5</ele>
        <time>2014-11-01T12:50:12Z</time>
      </trkpt>
      <trkpt lat="43.92111" lon="7.25938">
        <ele>504.5</ele>
        <time>2014-11-01T12:50:45Z</time>
      </trkpt>
      <trkpt lat="43.92118" lon="7.25919">
        <ele>507.5</ele>
        <time>2014-11-01T12:51:11Z</time>
      </trkpt>
      <trkpt lat="43.92127" lon="7.25902">
        <ele>507.5</ele>
        <time>2014-11-01T12:51:29Z</time>
      </trkpt>
      <trkpt lat="43.92134" lon="7.25885">
        <ele>506.5</ele>
        <time>2014-11-01T12:51:45Z</time>
      </trkpt>
      <trkpt lat="43.92133" lon="7.25864">
        <ele>514.5</ele>
        <time>2014-11-01T12:52:06Z</time>
      </trkpt>
      <trkpt lat="43.9214" lon="7.25846">
        <ele>520.5</ele>
        <time>2014-11-01T12:52:29Z</time>
      </trkpt>
      <trkpt lat="43.92127" lon="7.25836">
        <ele>525.5</ele>
        <time>2014-11-01T12:52:55Z</time>
      </trkpt>
      <trkpt lat="43.92127" lon="7.25815">
        <ele>531.5</ele>
        <time>2014-11-01T12:53:30Z</time>
      </trkpt>
      <trkpt lat="43.92124" lon="7.25794">
        <ele>537.5</ele>
        <time>2014-11-01T12:53:39Z</time>
      </trkpt>
      <trkpt lat="43.92116" lon="7.25776">
        <ele>541.5</ele>
        <time>2014-11-01T12:53:52Z</time>
      </trkpt>
      <trkpt lat="43.92118" lon="7.25754">
        <ele>543.5</ele>
        <time>2014-11-01T12:54:07Z</time>
      </trkpt>
      <trkpt lat="43.92129" lon="7.25741">
        <ele>549.5</ele>
        <time>2014-11-01T12:54:34Z</time>
      </trkpt>
      <trkpt lat="43.9213" lon="7.2572">
        <ele>555.5</ele>
        <time>2014-11-01T12:54:55Z</time>
      </trkpt>
      <trkpt lat="43.92139" lon="7.25704">
        <ele>561.5</ele>
        <time>2014-11-01T12:55:15Z</time>
      </trkpt>
      <trkpt lat="43.92149" lon="7.25689">
        <ele>566.5</ele>
        <time>2014-11-01T12:57:43Z</time>
      </trkpt>
      <trkpt lat="43.92163" lon="7.25685">
        <ele>575.5</ele>
        <time>2014-11-01T13:04:59Z</time>
      </trkpt>
      <trkpt lat="43.92176" lon="7.25693">
        <ele>564.5</ele>
        <time>2014-11-01T13:05:39Z</time>
      </trkpt>
      <trkpt lat="43.92192" lon="7.25692">
        <ele>563.5</ele>
        <time>2014-11-01T13:05:58Z</time>
      </trkpt>
      <trkpt lat="43.92206" lon="7.25698">
        <ele>559.5</ele>
        <time>2014-11-01T13:06:13Z</time>
      </trkpt>
      <trkpt lat="43.92219" lon="7.25709">
        <ele>551.5</ele>
        <time>2014-11-01T13:06:33Z</time>
      </trkpt>
      <trkpt lat="43.92234" lon="7.25713">
        <ele>544.5</ele>
        <time>2014-11-01T13:06:47Z</time>
      </trkpt>
      <trkpt lat="43.92249" lon="7.25712">
        <ele>543.5</ele>
        <time>2014-11-01T13:07:00Z</time>
      </trkpt>
      <trkpt lat="43.92265" lon="7.25713">
        <ele>540.5</ele>
        <time>2014-11-01T13:07:15Z</time>
      </trkpt>
      <trkpt lat="43.9228" lon="7.25713">
        <ele>533.5</ele>
        <time>2014-11-01T13:07:29Z</time>
      </trkpt>
      <trkpt lat="43.92294" lon="7.25715">
        <ele>535.5</ele>
        <time>2014-11-01T13:07:41Z</time>
      </trkpt>
      <trkpt lat="43.92309" lon="7.25715">
        <ele>535.5</ele>
        <time>2014-11-01T13:08:03Z</time>
      </trkpt>
      <trkpt lat="43.92325" lon="7.25719">
        <ele>533.5</ele>
        <time>2014-11-01T13:08:17Z</time>
      </trkpt>
      <trkpt lat="43.92339" lon="7.25721">
        <ele>532.5</ele>
        <time>2014-11-01T13:08:26Z</time>
      </trkpt>
      <trkpt lat="43.92355" lon="7.25721">
        <ele>525.5</ele>
        <time>2014-11-01T13:08:51Z</time>
      </trkpt>
      <trkpt lat="43.92369" lon="7.25724">
        <ele>521.5</ele>
        <time>2014-11-01T13:09:08Z</time>
      </trkpt>
      <trkpt lat="43.92383" lon="7.25725">
        <ele>520.5</ele>
        <time>2014-11-01T13:09:18Z</time>
      </trkpt>
      <trkpt lat="43.92399" lon="7.25724">
        <ele>515.5</ele>
        <time>2014-11-01T13:09:39Z</time>
      </trkpt>
      <trkpt lat="43.92414" lon="7.25724">
        <ele>503.5</ele>
        <time>2014-11-01T13:10:10Z</time>
      </trkpt>
      <trkpt lat="43.92429" lon="7.25725">
        <ele>501.5</ele>
        <time>2014-11-01T13:10:24Z</time>
      </trkpt>
      <trkpt lat="43.92444" lon="7.25725">
        <ele>503.5</ele>
        <time>2014-11-01T13:10:35Z</time>
      </trkpt>
      <trkpt lat="43.92444" lon="7.25726">
        <ele>502.5</ele>
        <time>2014-11-01T13:10:36Z</time>
      </trkpt>
      <trkpt lat="43.92458" lon="7.25727">
        <ele>496.5</ele>
        <time>2014-11-01T13:10:48Z</time>
      </trkpt>
      <trkpt lat="43.92473" lon="7.25727">
        <ele>487.5</ele>
        <time>2014-11-01T13:11:03Z</time>
      </trkpt>
      <trkpt lat="43.92487" lon="7.25722">
        <ele>487.5</ele>
        <time>2014-11-01T13:11:16Z</time>
      </trkpt>
      <trkpt lat="43.92502" lon="7.25721">
        <ele>475.5</ele>
        <time>2014-11-01T13:12:05Z</time>
      </trkpt>
      <trkpt lat="43.92516" lon="7.25715">
        <ele>481.5</ele>
        <time>2014-11-01T13:12:20Z</time>
      </trkpt>
      <trkpt lat="43.92529" lon="7.25708">
        <ele>476.5</ele>
        <time>2014-11-01T13:12:35Z</time>
      </trkpt>
      <trkpt lat="43.92545" lon="7.25709">
        <ele>470.5</ele>
        <time>2014-11-01T13:12:50Z</time>
      </trkpt>
      <trkpt lat="43.92558" lon="7.25715">
        <ele>465.5</ele>
        <time>2014-11-01T13:13:33Z</time>
      </trkpt>
      <trkpt lat="43.92574" lon="7.2571">
        <ele>458.5</ele>
        <time>2014-11-01T13:13:50Z</time>
      </trkpt>
      <trkpt lat="43.92589" lon="7.25706">
        <ele>461.5</ele>
        <time>2014-11-01T13:14:09Z</time>
      </trkpt>
      <trkpt lat="43.92604" lon="7.25704">
        <ele>454.5</ele>
        <time>2014-11-01T13:14:23Z</time>
      </trkpt>
      <trkpt lat="43.92618" lon="7.25705">
        <ele>455.5</ele>
        <time>2014-11-01T13:14:39Z</time>
      </trkpt>
      <trkpt lat="43.92625" lon="7.25724">
        <ele>441.5</ele>
        <time>2014-11-01T13:15:20Z</time>
      </trkpt>
      <trkpt lat="43.92622" lon="7.25729">
        <ele>440.5</ele>
        <time>2014-11-01T13:15:23Z</time>
      </trkpt>
      <trkpt lat="43.92609" lon="7.25741">
        <ele>437.5</ele>
        <time>2014-11-01T13:15:37Z</time>
      </trkpt>
      <trkpt lat="43.92602" lon="7.25759">
        <ele>438.5</ele>
        <time>2014-11-01T13:15:45Z</time>
      </trkpt>
      <trkpt lat="43.92602" lon="7.25774">
        <ele>441.5</ele>
        <time>2014-11-01T13:15:48Z</time>
      </trkpt>
      <trkpt lat="43.92612" lon="7.2579">
        <ele>437.5</ele>
        <time>2014-11-01T13:15:58Z</time>
      </trkpt>
      <trkpt lat="43.92619" lon="7.25808">
        <ele>430.5</ele>
        <time>2014-11-01T13:16:11Z</time>
      </trkpt>
      <trkpt lat="43.92619" lon="7.25829">
        <ele>430.5</ele>
        <time>2014-11-01T13:16:26Z</time>
      </trkpt>
      <trkpt lat="43.9262" lon="7.25842">
        <ele>428.5</ele>
        <time>2014-11-01T13:16:35Z</time>
      </trkpt>
      <trkpt lat="43.92616" lon="7.25861">
        <ele>434.5</ele>
        <time>2014-11-01T13:16:47Z</time>
      </trkpt>
      <trkpt lat="43.92606" lon="7.25878">
        <ele>433.5</ele>
        <time>2014-11-01T13:17:06Z</time>
      </trkpt>
      <trkpt lat="43.92602" lon="7.25879">
        <ele>432.5</ele>
        <time>2014-11-01T13:17:09Z</time>
      </trkpt>
      <trkpt lat="43.92596" lon="7.25898">
        <ele>431.5</ele>
        <time>2014-11-01T13:17:22Z</time>
      </trkpt>
      <trkpt lat="43.92595" lon="7.25917">
        <ele>425.5</ele>
        <time>2014-11-01T13:17:35Z</time>
      </trkpt>
      <trkpt lat="43.92593" lon="7.25937">
        <ele>429.5</ele>
        <time>2014-11-01T13:17:49Z</time>
      </trkpt>
      <trkpt lat="43.92594" lon="7.25948">
        <ele>426.5</ele>
        <time>2014-11-01T13:17:56Z</time>
      </trkpt>
      <trkpt lat="43.92593" lon="7.25969">
        <ele>425.5</ele>
        <time>2014-11-01T13:18:07Z</time>
      </trkpt>
      <trkpt lat="43.92595" lon="7.25989">
        <ele>431.5</ele>
        <time>2014-11-01T13:18:22Z</time>
      </trkpt>
      <trkpt lat="43.92594" lon="7.25991">
        <ele>432.5</ele>
        <time>2014-11-01T13:18:23Z</time>
      </trkpt>
      <trkpt lat="43.92595" lon="7.26013">
        <ele>437.5</ele>
        <time>2014-11-01T13:18:33Z</time>
      </trkpt>
      <trkpt lat="43.926" lon="7.26032">
        <ele>432.5</ele>
        <time>2014-11-01T13:18:47Z</time>
      </trkpt>
      <trkpt lat="43.92603" lon="7.26053">
        <ele>437.5</ele>
        <time>2014-11-01T13:18:59Z</time>
      </trkpt>
      <trkpt lat="43.92605" lon="7.26074">
        <ele>434.5</ele>
        <time>2014-11-01T13:19:12Z</time>
      </trkpt>
      <trkpt lat="43.92595" lon="7.2609">
        <ele>429.5</ele>
        <time>2014-11-01T13:19:31Z</time>
      </trkpt>
      <trkpt lat="43.92599" lon="7.26111">
        <ele>424.5</ele>
        <time>2014-11-01T13:19:55Z</time>
      </trkpt>
      <trkpt lat="43.926" lon="7.26132">
        <ele>417.5</ele>
        <time>2014-11-01T13:20:23Z</time>
      </trkpt>
      <trkpt lat="43.926" lon="7.26153">
        <ele>408.5</ele>
        <time>2014-11-01T13:20:48Z</time>
      </trkpt>
      <trkpt lat="43.9259" lon="7.26167">
        <ele>397.5</ele>
        <time>2014-11-01T13:21:28Z</time>
      </trkpt>
      <trkpt lat="43.92589" lon="7.2617">
        <ele>398.5</ele>
        <time>2014-11-01T13:21:30Z</time>
      </trkpt>
      <trkpt lat="43.92592" lon="7.2619">
        <ele>392.5</ele>
        <time>2014-11-01T13:21:47Z</time>
      </trkpt>
      <trkpt lat="43.92605" lon="7.26203">
        <ele>384.5</ele>
        <time>2014-11-01T13:22:02Z</time>
      </trkpt>
      <trkpt lat="43.9262" lon="7.26204">
        <ele>389.5</ele>
        <time>2014-11-01T13:22:14Z</time>
      </trkpt>
      <trkpt lat="43.92635" lon="7.26209">
        <ele>386.5</ele>
        <time>2014-11-01T13:22:28Z</time>
      </trkpt>
      <trkpt lat="43.92648" lon="7.26215">
        <ele>381.5</ele>
        <time>2014-11-01T13:22:42Z</time>
      </trkpt>
      <trkpt lat="43.92663" lon="7.26223">
        <ele>382.5</ele>
        <time>2014-11-01T13:22:57Z</time>
      </trkpt>
      <trkpt lat="43.92677" lon="7.26229">
        <ele>380.5</ele>
        <time>2014-11-01T13:23:12Z</time>
      </trkpt>
      <trkpt lat="43.92694" lon="7.26229">
        <ele>378.5</ele>
        <time>2014-11-01T13:23:22Z</time>
      </trkpt>
      <trkpt lat="43.92697" lon="7.2623">
        <ele>378.5</ele>
        <time>2014-11-01T13:23:24Z</time>
      </trkpt>
      <trkpt lat="43.92695" lon="7.26237">
        <ele>378.5</ele>
        <time>2014-11-01T13:23:30Z</time>
      </trkpt>
      <trkpt lat="43.92696" lon="7.26238">
        <ele>379.5</ele>
        <time>2014-11-01T13:23:31Z</time>
      </trkpt>
      <trkpt lat="43.92694" lon="7.26258">
        <ele>385.5</ele>
        <time>2014-11-01T13:24:34Z</time>
      </trkpt>
      <trkpt lat="43.92694" lon="7.26258">
        <ele>385.5</ele>
        <time>2014-11-01T13:24:44Z</time>
      </trkpt>
      <trkpt lat="43.92709" lon="7.26269">
        <ele>387.5</ele>
        <time>2014-11-01T13:26:17Z</time>
      </trkpt>
      <trkpt lat="43.92709" lon="7.26269">
        <ele>384.5</ele>
        <time>2014-11-01T13:26:18Z</time>
      </trkpt>
      <trkpt lat="43.92709" lon="7.26271">
        <ele>383.5</ele>
        <time>2014-11-01T13:26:20Z</time>
      </trkpt>
      <trkpt lat="43.92723" lon="7.26284">
        <ele>379.5</ele>
        <time>2014-11-01T13:26:33Z</time>
      </trkpt>
      <trkpt lat="43.92721" lon="7.2629">
        <ele>377.5</ele>
        <time>2014-11-01T13:26:37Z</time>
      </trkpt>
      <trkpt lat="43.92734" lon="7.26303">
        <ele>376.5</ele>
        <time>2014-11-01T13:26:49Z</time>
      </trkpt>
      <trkpt lat="43.92735" lon="7.26303">
        <ele>375.5</ele>
        <time>2014-11-01T13:26:50Z</time>
      </trkpt>
      <trkpt lat="43.92739" lon="7.2631">
        <ele>375.5</ele>
        <time>2014-11-01T13:26:56Z</time>
      </trkpt>
      <trkpt lat="43.9275" lon="7.26323">
        <ele>375.5</ele>
        <time>2014-11-01T13:27:08Z</time>
      </trkpt>
      <trkpt lat="43.92746" lon="7.26327">
        <ele>374.5</ele>
        <time>2014-11-01T13:27:09Z</time>
      </trkpt>
      <trkpt lat="43.92758" lon="7.2634">
        <ele>373.5</ele>
        <time>2014-11-01T13:27:21Z</time>
      </trkpt>
      <trkpt lat="43.92759" lon="7.26341">
        <ele>372.5</ele>
        <time>2014-11-01T13:27:23Z</time>
      </trkpt>
      <trkpt lat="43.92761" lon="7.26361">
        <ele>363.5</ele>
        <time>2014-11-01T13:27:38Z</time>
      </trkpt>
      <trkpt lat="43.92767" lon="7.2638">
        <ele>358.5</ele>
        <time>2014-11-01T13:27:52Z</time>
      </trkpt>
      <trkpt lat="43.92776" lon="7.26395">
        <ele>352.5</ele>
        <time>2014-11-01T13:28:09Z</time>
      </trkpt>
      <trkpt lat="43.92786" lon="7.26411">
        <ele>348.5</ele>
        <time>2014-11-01T13:28:24Z</time>
      </trkpt>
      <trkpt lat="43.92794" lon="7.26431">
        <ele>349.5</ele>
        <time>2014-11-01T13:28:33Z</time>
      </trkpt>
      <trkpt lat="43.92797" lon="7.26438">
        <ele>348.5</ele>
        <time>2014-11-01T13:28:37Z</time>
      </trkpt>
      <trkpt lat="43.92806" lon="7.26455">
        <ele>347.5</ele>
        <time>2014-11-01T13:28:50Z</time>
      </trkpt>
      <trkpt lat="43.92815" lon="7.26474">
        <ele>345.5</ele>
        <time>2014-11-01T13:29:04Z</time>
      </trkpt>
      <trkpt lat="43.92828" lon="7.26487">
        <ele>339.5</ele>
        <time>2014-11-01T13:29:16Z</time>
      </trkpt>
      <trkpt lat="43.92834" lon="7.26488">
        <ele>339.5</ele>
        <time>2014-11-01T13:29:19Z</time>
      </trkpt>
      <trkpt lat="43.9284" lon="7.26493">
        <ele>337.5</ele>
        <time>2014-11-01T13:29:24Z</time>
      </trkpt>
      <trkpt lat="43.92848" lon="7.26493">
        <ele>336.5</ele>
        <time>2014-11-01T13:29:31Z</time>
      </trkpt>
      <trkpt lat="43.92864" lon="7.26496">
        <ele>336.5</ele>
        <time>2014-11-01T13:29:47Z</time>
      </trkpt>
      <trkpt lat="43.92866" lon="7.26497">
        <ele>337.5</ele>
        <time>2014-11-01T13:29:48Z</time>
      </trkpt>
      <trkpt lat="43.9288" lon="7.26504">
        <ele>332.5</ele>
        <time>2014-11-01T13:30:05Z</time>
      </trkpt>
      <trkpt lat="43.92895" lon="7.26505">
        <ele>333.5</ele>
        <time>2014-11-01T13:30:19Z</time>
      </trkpt>
      <trkpt lat="43.92897" lon="7.26506">
        <ele>337.5</ele>
        <time>2014-11-01T13:30:23Z</time>
      </trkpt>
      <trkpt lat="43.92913" lon="7.26502">
        <ele>341.5</ele>
        <time>2014-11-01T13:30:37Z</time>
      </trkpt>
      <trkpt lat="43.92921" lon="7.26485">
        <ele>347.5</ele>
        <time>2014-11-01T13:30:58Z</time>
      </trkpt>
      <trkpt lat="43.92923" lon="7.26482">
        <ele>348.5</ele>
        <time>2014-11-01T13:31:02Z</time>
      </trkpt>
      <trkpt lat="43.92922" lon="7.26461">
        <ele>346.5</ele>
        <time>2014-11-01T13:31:15Z</time>
      </trkpt>
      <trkpt lat="43.92927" lon="7.26465">
        <ele>348.5</ele>
        <time>2014-11-01T13:31:19Z</time>
      </trkpt>
      <trkpt lat="43.92926" lon="7.26464">
        <ele>348.5</ele>
        <time>2014-11-01T13:31:20Z</time>
      </trkpt>
      <trkpt lat="43.92931" lon="7.2647">
        <ele>344.5</ele>
        <time>2014-11-01T13:31:21Z</time>
      </trkpt>
      <trkpt lat="43.92932" lon="7.26471">
        <ele>344.5</ele>
        <time>2014-11-01T13:31:22Z</time>
      </trkpt>
      <trkpt lat="43.92944" lon="7.26457">
        <ele>347.5</ele>
        <time>2014-11-01T13:31:38Z</time>
      </trkpt>
      <trkpt lat="43.92948" lon="7.26451">
        <ele>354.5</ele>
        <time>2014-11-01T13:31:44Z</time>
      </trkpt>
      <trkpt lat="43.92948" lon="7.26451">
        <ele>357.5</ele>
        <time>2014-11-01T13:31:46Z</time>
      </trkpt>
      <trkpt lat="43.92947" lon="7.26454">
        <ele>362.5</ele>
        <time>2014-11-01T13:31:53Z</time>
      </trkpt>
      <trkpt lat="43.92945" lon="7.26455">
        <ele>367.5</ele>
        <time>2014-11-01T13:31:59Z</time>
      </trkpt>
      <trkpt lat="43.9293" lon="7.2646">
        <ele>393.5</ele>
        <time>2014-11-01T13:32:45Z</time>
      </trkpt>
      <trkpt lat="43.92931" lon="7.26455">
        <ele>399.5</ele>
        <time>2014-11-01T13:33:14Z</time>
      </trkpt>
      <trkpt lat="43.92943" lon="7.2644">
        <ele>396.5</ele>
        <time>2014-11-01T13:33:20Z</time>
      </trkpt>
      <trkpt lat="43.9295" lon="7.26426">
        <ele>397.5</ele>
        <time>2014-11-01T13:33:25Z</time>
      </trkpt>
      <trkpt lat="43.92959" lon="7.26406">
        <ele>400.5</ele>
        <time>2014-11-01T13:33:33Z</time>
      </trkpt>
      <trkpt lat="43.92958" lon="7.26405">
        <ele>399.5</ele>
        <time>2014-11-01T13:33:34Z</time>
      </trkpt>
      <trkpt lat="43.92967" lon="7.26397">
        <ele>396.5</ele>
        <time>2014-11-01T13:33:41Z</time>
      </trkpt>
      <trkpt lat="43.92981" lon="7.26389">
        <ele>408.5</ele>
        <time>2014-11-01T13:34:07Z</time>
      </trkpt>
      <trkpt lat="43.9298" lon="7.26392">
        <ele>417.5</ele>
        <time>2014-11-01T13:34:15Z</time>
      </trkpt>
      <trkpt lat="43.92993" lon="7.26381">
        <ele>417.5</ele>
        <time>2014-11-01T13:34:29Z</time>
      </trkpt>
      <trkpt lat="43.92992" lon="7.26381">
        <ele>420.5</ele>
        <time>2014-11-01T13:34:30Z</time>
      </trkpt>
      <trkpt lat="43.92997" lon="7.26376">
        <ele>417.5</ele>
        <time>2014-11-01T13:34:34Z</time>
      </trkpt>
      <trkpt lat="43.93012" lon="7.2638">
        <ele>418.5</ele>
        <time>2014-11-01T13:34:43Z</time>
      </trkpt>
      <trkpt lat="43.93014" lon="7.26379">
        <ele>417.5</ele>
        <time>2014-11-01T13:34:44Z</time>
      </trkpt>
      <trkpt lat="43.93014" lon="7.26379">
        <ele>414.5</ele>
        <time>2014-11-01T13:34:46Z</time>
      </trkpt>
      <trkpt lat="43.93008" lon="7.26359">
        <ele>420.5</ele>
        <time>2014-11-01T13:35:05Z</time>
      </trkpt>
      <trkpt lat="43.92997" lon="7.26345">
        <ele>427.5</ele>
        <time>2014-11-01T13:35:27Z</time>
      </trkpt>
      <trkpt lat="43.92984" lon="7.26337">
        <ele>444.5</ele>
        <time>2014-11-01T13:35:50Z</time>
      </trkpt>
      <trkpt lat="43.92982" lon="7.26329">
        <ele>443.5</ele>
        <time>2014-11-01T13:35:54Z</time>
      </trkpt>
      <trkpt lat="43.92996" lon="7.26324">
        <ele>443.5</ele>
        <time>2014-11-01T13:36:13Z</time>
      </trkpt>
      <trkpt lat="43.93009" lon="7.26311">
        <ele>435.5</ele>
        <time>2014-11-01T13:36:22Z</time>
      </trkpt>
      <trkpt lat="43.93008" lon="7.26311">
        <ele>434.5</ele>
        <time>2014-11-01T13:36:23Z</time>
      </trkpt>
      <trkpt lat="43.93022" lon="7.26321">
        <ele>440.5</ele>
        <time>2014-11-01T13:36:42Z</time>
      </trkpt>
      <trkpt lat="43.9303" lon="7.26334">
        <ele>441.5</ele>
        <time>2014-11-01T13:36:55Z</time>
      </trkpt>
      <trkpt lat="43.9304" lon="7.26344">
        <ele>443.5</ele>
        <time>2014-11-01T13:37:06Z</time>
      </trkpt>
      <trkpt lat="43.93049" lon="7.2636">
        <ele>446.5</ele>
        <time>2014-11-01T13:37:22Z</time>
      </trkpt>
      <trkpt lat="43.93056" lon="7.26356">
        <ele>447.5</ele>
        <time>2014-11-01T13:37:25Z</time>
      </trkpt>
      <trkpt lat="43.93071" lon="7.26351">
        <ele>454.5</ele>
        <time>2014-11-01T13:39:02Z</time>
      </trkpt>
      <trkpt lat="43.93085" lon="7.26343">
        <ele>457.5</ele>
        <time>2014-11-01T13:39:21Z</time>
      </trkpt>
      <trkpt lat="43.93095" lon="7.26324">
        <ele>456.5</ele>
        <time>2014-11-01T13:39:38Z</time>
      </trkpt>
      <trkpt lat="43.93103" lon="7.26307">
        <ele>449.5</ele>
        <time>2014-11-01T13:40:05Z</time>
      </trkpt>
      <trkpt lat="43.93105" lon="7.26306">
        <ele>450.5</ele>
        <time>2014-11-01T13:40:23Z</time>
      </trkpt>
      <trkpt lat="43.93121" lon="7.26299">
        <ele>443.5</ele>
        <time>2014-11-01T13:40:33Z</time>
      </trkpt>
      <trkpt lat="43.93137" lon="7.26298">
        <ele>449.5</ele>
        <time>2014-11-01T13:40:38Z</time>
      </trkpt>
      <trkpt lat="43.93138" lon="7.26298">
        <ele>452.5</ele>
        <time>2014-11-01T13:40:39Z</time>
      </trkpt>
      <trkpt lat="43.93139" lon="7.26301">
        <ele>455.5</ele>
        <time>2014-11-01T13:40:40Z</time>
      </trkpt>
      <trkpt lat="43.93143" lon="7.26302">
        <ele>455.5</ele>
        <time>2014-11-01T13:40:45Z</time>
      </trkpt>
      <trkpt lat="43.93142" lon="7.26308">
        <ele>459.5</ele>
        <time>2014-11-01T13:40:47Z</time>
      </trkpt>
      <trkpt lat="43.93155" lon="7.26319">
        <ele>466.5</ele>
        <time>2014-11-01T13:41:00Z</time>
      </trkpt>
      <trkpt lat="43.9316" lon="7.26322">
        <ele>467.5</ele>
        <time>2014-11-01T13:41:04Z</time>
      </trkpt>
      <trkpt lat="43.93174" lon="7.26332">
        <ele>473.5</ele>
        <time>2014-11-01T13:41:16Z</time>
      </trkpt>
      <trkpt lat="43.93174" lon="7.2634">
        <ele>476.5</ele>
        <time>2014-11-01T13:41:23Z</time>
      </trkpt>
      <trkpt lat="43.93189" lon="7.26348">
        <ele>479.5</ele>
        <time>2014-11-01T13:41:36Z</time>
      </trkpt>
      <trkpt lat="43.93202" lon="7.26359">
        <ele>480.5</ele>
        <time>2014-11-01T13:41:55Z</time>
      </trkpt>
      <trkpt lat="43.93202" lon="7.26362">
        <ele>480.5</ele>
        <time>2014-11-01T13:41:56Z</time>
      </trkpt>
      <trkpt lat="43.93218" lon="7.26366">
        <ele>480.5</ele>
        <time>2014-11-01T13:42:08Z</time>
      </trkpt>
      <trkpt lat="43.93227" lon="7.26381">
        <ele>482.5</ele>
        <time>2014-11-01T13:42:18Z</time>
      </trkpt>
      <trkpt lat="43.93241" lon="7.26372">
        <ele>471.5</ele>
        <time>2014-11-01T13:42:36Z</time>
      </trkpt>
      <trkpt lat="43.93237" lon="7.26366">
        <ele>475.5</ele>
        <time>2014-11-01T13:42:39Z</time>
      </trkpt>
      <trkpt lat="43.93239" lon="7.26362">
        <ele>479.5</ele>
        <time>2014-11-01T13:42:44Z</time>
      </trkpt>
      <trkpt lat="43.93244" lon="7.26359">
        <ele>479.5</ele>
        <time>2014-11-01T13:42:49Z</time>
      </trkpt>
      <trkpt lat="43.93249" lon="7.26337">
        <ele>475.5</ele>
        <time>2014-11-01T13:47:29Z</time>
      </trkpt>
      <trkpt lat="43.93251" lon="7.26315">
        <ele>470.5</ele>
        <time>2014-11-01T13:47:33Z</time>
      </trkpt>
      <trkpt lat="43.93255" lon="7.26291">
        <ele>463.5</ele>
        <time>2014-11-01T13:47:38Z</time>
      </trkpt>
      <trkpt lat="43.93242" lon="7.26298">
        <ele>463.5</ele>
        <time>2014-11-01T13:47:40Z</time>
      </trkpt>
      <trkpt lat="43.93245" lon="7.26283">
        <ele>461.5</ele>
        <time>2014-11-01T13:47:44Z</time>
      </trkpt>
      <trkpt lat="43.93246" lon="7.2628">
        <ele>459.5</ele>
        <time>2014-11-01T13:47:45Z</time>
      </trkpt>
      <trkpt lat="43.93247" lon="7.26259">
        <ele>453.5</ele>
        <time>2014-11-01T13:47:55Z</time>
      </trkpt>
      <trkpt lat="43.93248" lon="7.26255">
        <ele>452.5</ele>
        <time>2014-11-01T13:47:56Z</time>
      </trkpt>
      <trkpt lat="43.9325" lon="7.26248">
        <ele>455.5</ele>
        <time>2014-11-01T13:47:59Z</time>
      </trkpt>
      <trkpt lat="43.93259" lon="7.26232">
        <ele>452.5</ele>
        <time>2014-11-01T13:48:08Z</time>
      </trkpt>
      <trkpt lat="43.93263" lon="7.26222">
        <ele>451.5</ele>
        <time>2014-11-01T13:48:15Z</time>
      </trkpt>
      <trkpt lat="43.93264" lon="7.26216">
        <ele>451.5</ele>
        <time>2014-11-01T13:48:19Z</time>
      </trkpt>
      <trkpt lat="43.93266" lon="7.26212">
        <ele>452.5</ele>
        <time>2014-11-01T13:48:21Z</time>
      </trkpt>
      <trkpt lat="43.93265" lon="7.2621">
        <ele>451.5</ele>
        <time>2014-11-01T13:48:24Z</time>
      </trkpt>
      <trkpt lat="43.93262" lon="7.26213">
        <ele>450.5</ele>
        <time>2014-11-01T13:48:25Z</time>
      </trkpt>
      <trkpt lat="43.93262" lon="7.26213">
        <ele>449.5</ele>
        <time>2014-11-01T13:48:26Z</time>
      </trkpt>
      <trkpt lat="43.93263" lon="7.26212">
        <ele>450.5</ele>
        <time>2014-11-01T13:48:27Z</time>
      </trkpt>
      <trkpt lat="43.93269" lon="7.26192">
        <ele>445.5</ele>
        <time>2014-11-01T13:49:01Z</time>
      </trkpt>
      <trkpt lat="43.93278" lon="7.26175">
        <ele>444.5</ele>
        <time>2014-11-01T13:49:06Z</time>
      </trkpt>
      <trkpt lat="43.93289" lon="7.26162">
        <ele>440.5</ele>
        <time>2014-11-01T13:49:14Z</time>
      </trkpt>
      <trkpt lat="43.93291" lon="7.26157">
        <ele>440.5</ele>
        <time>2014-11-01T13:49:15Z</time>
      </trkpt>
      <trkpt lat="43.93297" lon="7.26153">
        <ele>441.5</ele>
        <time>2014-11-01T13:49:17Z</time>
      </trkpt>
      <trkpt lat="43.93307" lon="7.26143">
        <ele>443.5</ele>
        <time>2014-11-01T13:49:22Z</time>
      </trkpt>
      <trkpt lat="43.93308" lon="7.26141">
        <ele>443.5</ele>
        <time>2014-11-01T13:49:23Z</time>
      </trkpt>
      <trkpt lat="43.93309" lon="7.26141">
        <ele>443.5</ele>
        <time>2014-11-01T13:49:25Z</time>
      </trkpt>
      <trkpt lat="43.9331" lon="7.26141">
        <ele>440.5</ele>
        <time>2014-11-01T13:49:26Z</time>
      </trkpt>
      <trkpt lat="43.93312" lon="7.26138">
        <ele>440.5</ele>
        <time>2014-11-01T13:49:28Z</time>
      </trkpt>
      <trkpt lat="43.93314" lon="7.26138">
        <ele>439.5</ele>
        <time>2014-11-01T13:49:29Z</time>
      </trkpt>
      <trkpt lat="43.93316" lon="7.26137">
        <ele>439.5</ele>
        <time>2014-11-01T13:49:30Z</time>
      </trkpt>
      <trkpt lat="43.93317" lon="7.26135">
        <ele>438.5</ele>
        <time>2014-11-01T13:49:31Z</time>
      </trkpt>
      <trkpt lat="43.93318" lon="7.26134">
        <ele>437.5</ele>
        <time>2014-11-01T13:49:32Z</time>
      </trkpt>
      <trkpt lat="43.93321" lon="7.26129">
        <ele>436.5</ele>
        <time>2014-11-01T13:49:34Z</time>
      </trkpt>
      <trkpt lat="43.93337" lon="7.26116">
        <ele>439.5</ele>
        <time>2014-11-01T13:49:52Z</time>
      </trkpt>
      <trkpt lat="43.93355" lon="7.26113">
        <ele>442.5</ele>
        <time>2014-11-01T13:49:55Z</time>
      </trkpt>
      <trkpt lat="43.93375" lon="7.26103">
        <ele>445.5</ele>
        <time>2014-11-01T13:49:58Z</time>
      </trkpt>
      <trkpt lat="43.93385" lon="7.261">
        <ele>448.5</ele>
        <time>2014-11-01T13:49:59Z</time>
      </trkpt>
      <trkpt lat="43.93391" lon="7.26098">
        <ele>448.5</ele>
        <time>2014-11-01T13:50:01Z</time>
      </trkpt>
      <trkpt lat="43.93395" lon="7.26097">
        <ele>448.5</ele>
        <time>2014-11-01T13:50:02Z</time>
      </trkpt>
      <trkpt lat="43.93402" lon="7.26098">
        <ele>451.5</ele>
        <time>2014-11-01T13:50:04Z</time>
      </trkpt>
      <trkpt lat="43.93404" lon="7.26099">
        <ele>454.5</ele>
        <time>2014-11-01T13:50:05Z</time>
      </trkpt>
      <trkpt lat="43.93405" lon="7.26102">
        <ele>455.5</ele>
        <time>2014-11-01T13:50:06Z</time>
      </trkpt>
      <trkpt lat="43.93406" lon="7.26105">
        <ele>451.5</ele>
        <time>2014-11-01T13:50:10Z</time>
      </trkpt>
      <trkpt lat="43.93421" lon="7.26105">
        <ele>440.5</ele>
        <time>2014-11-01T13:50:24Z</time>
      </trkpt>
      <trkpt lat="43.93422" lon="7.26105">
        <ele>440.5</ele>
        <time>2014-11-01T13:50:25Z</time>
      </trkpt>
      <trkpt lat="43.93433" lon="7.26106">
        <ele>437.5</ele>
        <time>2014-11-01T13:50:36Z</time>
      </trkpt>
      <trkpt lat="43.93432" lon="7.26111">
        <ele>439.5</ele>
        <time>2014-11-01T13:50:41Z</time>
      </trkpt>
      <trkpt lat="43.93432" lon="7.26117">
        <ele>440.5</ele>
        <time>2014-11-01T13:50:49Z</time>
      </trkpt>
      <trkpt lat="43.93431" lon="7.26117">
        <ele>441.5</ele>
        <time>2014-11-01T13:50:56Z</time>
      </trkpt>
      <trkpt lat="43.93427" lon="7.26136">
        <ele>439.5</ele>
        <time>2014-11-01T13:51:08Z</time>
      </trkpt>
      <trkpt lat="43.93425" lon="7.26158">
        <ele>437.5</ele>
        <time>2014-11-01T13:51:15Z</time>
      </trkpt>
      <trkpt lat="43.93422" lon="7.26178">
        <ele>434.5</ele>
        <time>2014-11-01T13:51:28Z</time>
      </trkpt>
      <trkpt lat="43.93422" lon="7.26198">
        <ele>434.5</ele>
        <time>2014-11-01T13:51:39Z</time>
      </trkpt>
      <trkpt lat="43.93418" lon="7.2622">
        <ele>446.5</ele>
        <time>2014-11-01T13:51:55Z</time>
      </trkpt>
      <trkpt lat="43.93418" lon="7.26225">
        <ele>442.5</ele>
        <time>2014-11-01T13:52:00Z</time>
      </trkpt>
      <trkpt lat="43.93416" lon="7.26232">
        <ele>444.5</ele>
        <time>2014-11-01T13:52:08Z</time>
      </trkpt>
      <trkpt lat="43.93417" lon="7.26254">
        <ele>440.5</ele>
        <time>2014-11-01T13:52:18Z</time>
      </trkpt>
      <trkpt lat="43.93416" lon="7.26274">
        <ele>425.5</ele>
        <time>2014-11-01T13:52:34Z</time>
      </trkpt>
      <trkpt lat="43.93416" lon="7.26275">
        <ele>425.5</ele>
        <time>2014-11-01T13:52:35Z</time>
      </trkpt>
      <trkpt lat="43.93426" lon="7.26289">
        <ele>431.5</ele>
        <time>2014-11-01T13:52:46Z</time>
      </trkpt>
      <trkpt lat="43.93444" lon="7.26274">
        <ele>432.5</ele>
        <time>2014-11-01T13:52:51Z</time>
      </trkpt>
      <trkpt lat="43.93451" lon="7.26269">
        <ele>432.5</ele>
        <time>2014-11-01T13:52:58Z</time>
      </trkpt>
      <trkpt lat="43.93452" lon="7.2627">
        <ele>434.5</ele>
        <time>2014-11-01T13:52:59Z</time>
      </trkpt>
      <trkpt lat="43.93447" lon="7.26273">
        <ele>433.5</ele>
        <time>2014-11-01T13:53:00Z</time>
      </trkpt>
      <trkpt lat="43.93443" lon="7.26297">
        <ele>441.5</ele>
        <time>2014-11-01T13:53:05Z</time>
      </trkpt>
      <trkpt lat="43.93442" lon="7.26304">
        <ele>443.5</ele>
        <time>2014-11-01T13:53:06Z</time>
      </trkpt>
      <trkpt lat="43.9344" lon="7.26311">
        <ele>446.5</ele>
        <time>2014-11-01T13:53:20Z</time>
      </trkpt>
      <trkpt lat="43.93439" lon="7.26308">
        <ele>446.5</ele>
        <time>2014-11-01T13:53:25Z</time>
      </trkpt>
      <trkpt lat="43.93439" lon="7.26308">
        <ele>446.5</ele>
        <time>2014-11-01T13:53:26Z</time>
      </trkpt>
      <trkpt lat="43.93439" lon="7.26306">
        <ele>446.5</ele>
        <time>2014-11-01T13:53:27Z</time>
      </trkpt>
      <trkpt lat="43.93439" lon="7.26303">
        <ele>446.5</ele>
        <time>2014-11-01T13:53:28Z</time>
      </trkpt>
      <trkpt lat="43.93439" lon="7.26304">
        <ele>445.5</ele>
        <time>2014-11-01T13:53:33Z</time>
      </trkpt>
      <trkpt lat="43.93453" lon="7.26299">
        <ele>441.5</ele>
        <time>2014-11-01T13:54:34Z</time>
      </trkpt>
      <trkpt lat="43.93468" lon="7.26289">
        <ele>435.5</ele>
        <time>2014-11-01T13:54:43Z</time>
      </trkpt>
      <trkpt lat="43.93471" lon="7.26289">
        <ele>436.5</ele>
        <time>2014-11-01T13:54:44Z</time>
      </trkpt>
      <trkpt lat="43.93474" lon="7.26286">
        <ele>435.5</ele>
        <time>2014-11-01T13:54:45Z</time>
      </trkpt>
      <trkpt lat="43.93477" lon="7.26285">
        <ele>434.5</ele>
        <time>2014-11-01T13:54:46Z</time>
      </trkpt>
      <trkpt lat="43.9348" lon="7.26289">
        <ele>435.5</ele>
        <time>2014-11-01T13:54:50Z</time>
      </trkpt>
      <trkpt lat="43.93496" lon="7.26286">
        <ele>434.5</ele>
        <time>2014-11-01T13:54:58Z</time>
      </trkpt>
      <trkpt lat="43.93511" lon="7.26276">
        <ele>433.5</ele>
        <time>2014-11-01T13:55:05Z</time>
      </trkpt>
      <trkpt lat="43.9351" lon="7.26277">
        <ele>432.5</ele>
        <time>2014-11-01T13:55:06Z</time>
      </trkpt>
      <trkpt lat="43.93525" lon="7.26284">
        <ele>439.5</ele>
        <time>2014-11-01T13:55:17Z</time>
      </trkpt>
      <trkpt lat="43.93536" lon="7.26296">
        <ele>437.5</ele>
        <time>2014-11-01T13:55:31Z</time>
      </trkpt>
      <trkpt lat="43.93541" lon="7.26297">
        <ele>439.5</ele>
        <time>2014-11-01T13:55:34Z</time>
      </trkpt>
      <trkpt lat="43.93541" lon="7.26301">
        <ele>441.5</ele>
        <time>2014-11-01T13:55:35Z</time>
      </trkpt>
      <trkpt lat="43.93554" lon="7.26312">
        <ele>441.5</ele>
        <time>2014-11-01T13:55:46Z</time>
      </trkpt>
      <trkpt lat="43.93561" lon="7.26332">
        <ele>441.5</ele>
        <time>2014-11-01T13:55:59Z</time>
      </trkpt>
      <trkpt lat="43.93559" lon="7.26346">
        <ele>444.5</ele>
        <time>2014-11-01T13:56:00Z</time>
      </trkpt>
      <trkpt lat="43.93562" lon="7.26342">
        <ele>442.5</ele>
        <time>2014-11-01T13:56:02Z</time>
      </trkpt>
      <trkpt lat="43.93577" lon="7.26338">
        <ele>450.5</ele>
        <time>2014-11-01T13:56:20Z</time>
      </trkpt>
      <trkpt lat="43.9358" lon="7.2635">
        <ele>453.5</ele>
        <time>2014-11-01T13:56:21Z</time>
      </trkpt>
      <trkpt lat="43.93596" lon="7.26367">
        <ele>454.5</ele>
        <time>2014-11-01T13:56:33Z</time>
      </trkpt>
      <trkpt lat="43.93593" lon="7.26397">
        <ele>454.5</ele>
        <time>2014-11-01T13:56:35Z</time>
      </trkpt>
      <trkpt lat="43.93597" lon="7.26411">
        <ele>459.5</ele>
        <time>2014-11-01T13:56:43Z</time>
      </trkpt>
      <trkpt lat="43.93596" lon="7.26402">
        <ele>460.5</ele>
        <time>2014-11-01T13:56:44Z</time>
      </trkpt>
      <trkpt lat="43.93595" lon="7.26397">
        <ele>462.5</ele>
        <time>2014-11-01T13:56:45Z</time>
      </trkpt>
      <trkpt lat="43.93594" lon="7.26398">
        <ele>463.5</ele>
        <time>2014-11-01T13:56:46Z</time>
      </trkpt>
      <trkpt lat="43.93594" lon="7.26394">
        <ele>463.5</ele>
        <time>2014-11-01T13:56:47Z</time>
      </trkpt>
      <trkpt lat="43.93596" lon="7.26397">
        <ele>459.5</ele>
        <time>2014-11-01T13:56:48Z</time>
      </trkpt>
      <trkpt lat="43.93594" lon="7.2639">
        <ele>463.5</ele>
        <time>2014-11-01T13:56:49Z</time>
      </trkpt>
      <trkpt lat="43.93593" lon="7.26389">
        <ele>465.5</ele>
        <time>2014-11-01T13:56:50Z</time>
      </trkpt>
      <trkpt lat="43.93594" lon="7.26392">
        <ele>464.5</ele>
        <time>2014-11-01T13:56:51Z</time>
      </trkpt>
      <trkpt lat="43.93594" lon="7.26389">
        <ele>464.5</ele>
        <time>2014-11-01T13:56:52Z</time>
      </trkpt>
      <trkpt lat="43.93593" lon="7.2638">
        <ele>466.5</ele>
        <time>2014-11-01T13:56:54Z</time>
      </trkpt>
      <trkpt lat="43.93592" lon="7.26375">
        <ele>467.5</ele>
        <time>2014-11-01T13:56:57Z</time>
      </trkpt>
      <trkpt lat="43.93592" lon="7.26372">
        <ele>467.5</ele>
        <time>2014-11-01T13:57:41Z</time>
      </trkpt>
      <trkpt lat="43.93599" lon="7.26393">
        <ele>478.5</ele>
        <time>2014-11-01T13:58:41Z</time>
      </trkpt>
      <trkpt lat="43.93614" lon="7.26395">
        <ele>478.5</ele>
        <time>2014-11-01T13:58:51Z</time>
      </trkpt>
      <trkpt lat="43.93618" lon="7.26392">
        <ele>476.5</ele>
        <time>2014-11-01T13:58:57Z</time>
      </trkpt>
      <trkpt lat="43.93621" lon="7.26389">
        <ele>474.5</ele>
        <time>2014-11-01T13:58:58Z</time>
      </trkpt>
      <trkpt lat="43.93626" lon="7.26386">
        <ele>472.5</ele>
        <time>2014-11-01T13:59:01Z</time>
      </trkpt>
      <trkpt lat="43.93642" lon="7.26387">
        <ele>471.5</ele>
        <time>2014-11-01T13:59:18Z</time>
      </trkpt>
      <trkpt lat="43.93658" lon="7.26392">
        <ele>473.5</ele>
        <time>2014-11-01T13:59:31Z</time>
      </trkpt>
      <trkpt lat="43.93676" lon="7.2639">
        <ele>471.5</ele>
        <time>2014-11-01T13:59:43Z</time>
      </trkpt>
      <trkpt lat="43.9368" lon="7.26395">
        <ele>470.5</ele>
        <time>2014-11-01T13:59:45Z</time>
      </trkpt>
      <trkpt lat="43.93686" lon="7.26416">
        <ele>468.5</ele>
        <time>2014-11-01T13:59:58Z</time>
      </trkpt>
      <trkpt lat="43.93687" lon="7.26419">
        <ele>467.5</ele>
        <time>2014-11-01T14:00:00Z</time>
      </trkpt>
      <trkpt lat="43.93686" lon="7.26425">
        <ele>464.5</ele>
        <time>2014-11-01T14:00:02Z</time>
      </trkpt>
      <trkpt lat="43.93689" lon="7.26447">
        <ele>466.5</ele>
        <time>2014-11-01T14:00:12Z</time>
      </trkpt>
      <trkpt lat="43.9369" lon="7.26449">
        <ele>467.5</ele>
        <time>2014-11-01T14:00:13Z</time>
      </trkpt>
      <trkpt lat="43.93688" lon="7.26477">
        <ele>468.5</ele>
        <time>2014-11-01T14:00:23Z</time>
      </trkpt>
      <trkpt lat="43.93698" lon="7.26474">
        <ele>466.5</ele>
        <time>2014-11-01T14:00:26Z</time>
      </trkpt>
      <trkpt lat="43.9371" lon="7.26487">
        <ele>471.5</ele>
        <time>2014-11-01T14:00:37Z</time>
      </trkpt>
      <trkpt lat="43.93724" lon="7.26481">
        <ele>470.5</ele>
        <time>2014-11-01T14:00:47Z</time>
      </trkpt>
      <trkpt lat="43.93723" lon="7.26488">
        <ele>468.5</ele>
        <time>2014-11-01T14:00:50Z</time>
      </trkpt>
      <trkpt lat="43.93722" lon="7.2649">
        <ele>469.5</ele>
        <time>2014-11-01T14:00:52Z</time>
      </trkpt>
      <trkpt lat="43.93719" lon="7.265">
        <ele>473.5</ele>
        <time>2014-11-01T14:01:13Z</time>
      </trkpt>
      <trkpt lat="43.93735" lon="7.26491">
        <ele>466.5</ele>
        <time>2014-11-01T14:04:37Z</time>
      </trkpt>
      <trkpt lat="43.93751" lon="7.2648">
        <ele>470.5</ele>
        <time>2014-11-01T14:04:41Z</time>
      </trkpt>
      <trkpt lat="43.93765" lon="7.26473">
        <ele>468.5</ele>
        <time>2014-11-01T14:04:45Z</time>
      </trkpt>
      <trkpt lat="43.93771" lon="7.26472">
        <ele>469.5</ele>
        <time>2014-11-01T14:04:46Z</time>
      </trkpt>
      <trkpt lat="43.93775" lon="7.26469">
        <ele>468.5</ele>
        <time>2014-11-01T14:04:47Z</time>
      </trkpt>
      <trkpt lat="43.93782" lon="7.26464">
        <ele>469.5</ele>
        <time>2014-11-01T14:04:48Z</time>
      </trkpt>
      <trkpt lat="43.93782" lon="7.26465">
        <ele>469.5</ele>
        <time>2014-11-01T14:04:49Z</time>
      </trkpt>
      <trkpt lat="43.93795" lon="7.26468">
        <ele>472.5</ele>
        <time>2014-11-01T14:04:57Z</time>
      </trkpt>
      <trkpt lat="43.938" lon="7.26465">
        <ele>471.5</ele>
        <time>2014-11-01T14:05:00Z</time>
      </trkpt>
      <trkpt lat="43.93795" lon="7.26469">
        <ele>468.5</ele>
        <time>2014-11-01T14:05:01Z</time>
      </trkpt>
      <trkpt lat="43.938" lon="7.26474">
        <ele>467.5</ele>
        <time>2014-11-01T14:05:07Z</time>
      </trkpt>
      <trkpt lat="43.93808" lon="7.26492">
        <ele>466.5</ele>
        <time>2014-11-01T14:05:18Z</time>
      </trkpt>
      <trkpt lat="43.93809" lon="7.26512">
        <ele>468.5</ele>
        <time>2014-11-01T14:05:31Z</time>
      </trkpt>
      <trkpt lat="43.93809" lon="7.26511">
        <ele>467.5</ele>
        <time>2014-11-01T14:05:32Z</time>
      </trkpt>
      <trkpt lat="43.93814" lon="7.26524">
        <ele>467.5</ele>
        <time>2014-11-01T14:05:41Z</time>
      </trkpt>
      <trkpt lat="43.93817" lon="7.26544">
        <ele>463.5</ele>
        <time>2014-11-01T14:05:53Z</time>
      </trkpt>
      <trkpt lat="43.93824" lon="7.26565">
        <ele>463.5</ele>
        <time>2014-11-01T14:06:04Z</time>
      </trkpt>
      <trkpt lat="43.93822" lon="7.26585">
        <ele>461.5</ele>
        <time>2014-11-01T14:06:18Z</time>
      </trkpt>
      <trkpt lat="43.93822" lon="7.26605">
        <ele>458.5</ele>
        <time>2014-11-01T14:06:33Z</time>
      </trkpt>
      <trkpt lat="43.93822" lon="7.26609">
        <ele>457.5</ele>
        <time>2014-11-01T14:06:36Z</time>
      </trkpt>
      <trkpt lat="43.93824" lon="7.2662">
        <ele>457.5</ele>
        <time>2014-11-01T14:06:44Z</time>
      </trkpt>
      <trkpt lat="43.9382" lon="7.26642">
        <ele>461.5</ele>
        <time>2014-11-01T14:06:54Z</time>
      </trkpt>
      <trkpt lat="43.93821" lon="7.26646">
        <ele>462.5</ele>
        <time>2014-11-01T14:06:56Z</time>
      </trkpt>
      <trkpt lat="43.9382" lon="7.26668">
        <ele>462.5</ele>
        <time>2014-11-01T14:07:12Z</time>
      </trkpt>
      <trkpt lat="43.93823" lon="7.26685">
        <ele>463.5</ele>
        <time>2014-11-01T14:07:22Z</time>
      </trkpt>
      <trkpt lat="43.9382" lon="7.26685">
        <ele>462.5</ele>
        <time>2014-11-01T14:07:23Z</time>
      </trkpt>
      <trkpt lat="43.93813" lon="7.26703">
        <ele>462.5</ele>
        <time>2014-11-01T14:07:35Z</time>
      </trkpt>
      <trkpt lat="43.93821" lon="7.26717">
        <ele>463.5</ele>
        <time>2014-11-01T14:07:41Z</time>
      </trkpt>
      <trkpt lat="43.93816" lon="7.26733">
        <ele>465.5</ele>
        <time>2014-11-01T14:07:51Z</time>
      </trkpt>
      <trkpt lat="43.93818" lon="7.26754">
        <ele>460.5</ele>
        <time>2014-11-01T14:08:08Z</time>
      </trkpt>
      <trkpt lat="43.93819" lon="7.26778">
        <ele>463.5</ele>
        <time>2014-11-01T14:08:19Z</time>
      </trkpt>
      <trkpt lat="43.93826" lon="7.26798">
        <ele>461.5</ele>
        <time>2014-11-01T14:08:33Z</time>
      </trkpt>
      <trkpt lat="43.93828" lon="7.26802">
        <ele>459.5</ele>
        <time>2014-11-01T14:08:36Z</time>
      </trkpt>
      <trkpt lat="43.93827" lon="7.26809">
        <ele>456.5</ele>
        <time>2014-11-01T14:08:42Z</time>
      </trkpt>
      <trkpt lat="43.93825" lon="7.26829">
        <ele>458.5</ele>
        <time>2014-11-01T14:08:52Z</time>
      </trkpt>
      <trkpt lat="43.93827" lon="7.26849">
        <ele>457.5</ele>
        <time>2014-11-01T14:09:03Z</time>
      </trkpt>
      <trkpt lat="43.93839" lon="7.26863">
        <ele>457.5</ele>
        <time>2014-11-01T14:09:18Z</time>
      </trkpt>
      <trkpt lat="43.93852" lon="7.26875">
        <ele>458.5</ele>
        <time>2014-11-01T14:09:28Z</time>
      </trkpt>
      <trkpt lat="43.93859" lon="7.26883">
        <ele>459.5</ele>
        <time>2014-11-01T14:09:35Z</time>
      </trkpt>
      <trkpt lat="43.93874" lon="7.2689">
        <ele>462.5</ele>
        <time>2014-11-01T14:09:44Z</time>
      </trkpt>
      <trkpt lat="43.93876" lon="7.26893">
        <ele>458.5</ele>
        <time>2014-11-01T14:09:48Z</time>
      </trkpt>
      <trkpt lat="43.93884" lon="7.26898">
        <ele>458.5</ele>
        <time>2014-11-01T14:09:54Z</time>
      </trkpt>
      <trkpt lat="43.93884" lon="7.26898">
        <ele>456.5</ele>
        <time>2014-11-01T14:09:55Z</time>
      </trkpt>
      <trkpt lat="43.93894" lon="7.26899">
        <ele>458.5</ele>
        <time>2014-11-01T14:10:00Z</time>
      </trkpt>
      <trkpt lat="43.93903" lon="7.26917">
        <ele>463.5</ele>
        <time>2014-11-01T14:10:11Z</time>
      </trkpt>
      <trkpt lat="43.93912" lon="7.26933">
        <ele>460.5</ele>
        <time>2014-11-01T14:10:25Z</time>
      </trkpt>
      <trkpt lat="43.93926" lon="7.26946">
        <ele>459.5</ele>
        <time>2014-11-01T14:10:38Z</time>
      </trkpt>
      <trkpt lat="43.93927" lon="7.26947">
        <ele>459.5</ele>
        <time>2014-11-01T14:10:39Z</time>
      </trkpt>
      <trkpt lat="43.93937" lon="7.26962">
        <ele>461.5</ele>
        <time>2014-11-01T14:10:50Z</time>
      </trkpt>
      <trkpt lat="43.93941" lon="7.2697">
        <ele>460.5</ele>
        <time>2014-11-01T14:10:54Z</time>
      </trkpt>
      <trkpt lat="43.93951" lon="7.26985">
        <ele>456.5</ele>
        <time>2014-11-01T14:11:09Z</time>
      </trkpt>
      <trkpt lat="43.93962" lon="7.27002">
        <ele>452.5</ele>
        <time>2014-11-01T14:11:23Z</time>
      </trkpt>
      <trkpt lat="43.93968" lon="7.27021">
        <ele>452.5</ele>
        <time>2014-11-01T14:11:33Z</time>
      </trkpt>
      <trkpt lat="43.93967" lon="7.27046">
        <ele>456.5</ele>
        <time>2014-11-01T14:11:46Z</time>
      </trkpt>
      <trkpt lat="43.93965" lon="7.27067">
        <ele>456.5</ele>
        <time>2014-11-01T14:12:00Z</time>
      </trkpt>
      <trkpt lat="43.93969" lon="7.27065">
        <ele>452.5</ele>
        <time>2014-11-01T14:12:01Z</time>
      </trkpt>
      <trkpt lat="43.93968" lon="7.27064">
        <ele>451.5</ele>
        <time>2014-11-01T14:12:02Z</time>
      </trkpt>
      <trkpt lat="43.93975" lon="7.27083">
        <ele>447.5</ele>
        <time>2014-11-01T14:12:14Z</time>
      </trkpt>
      <trkpt lat="43.93975" lon="7.27085">
        <ele>445.5</ele>
        <time>2014-11-01T14:12:17Z</time>
      </trkpt>
      <trkpt lat="43.9398" lon="7.27104">
        <ele>446.5</ele>
        <time>2014-11-01T14:12:30Z</time>
      </trkpt>
      <trkpt lat="43.93981" lon="7.27107">
        <ele>445.5</ele>
        <time>2014-11-01T14:12:32Z</time>
      </trkpt>
      <trkpt lat="43.93988" lon="7.27127">
        <ele>449.5</ele>
        <time>2014-11-01T14:12:43Z</time>
      </trkpt>
      <trkpt lat="43.93989" lon="7.27128">
        <ele>450.5</ele>
        <time>2014-11-01T14:12:44Z</time>
      </trkpt>
      <trkpt lat="43.94" lon="7.27144">
        <ele>448.5</ele>
        <time>2014-11-01T14:12:56Z</time>
      </trkpt>
      <trkpt lat="43.94004" lon="7.27156">
        <ele>452.5</ele>
        <time>2014-11-01T14:13:01Z</time>
      </trkpt>
      <trkpt lat="43.94016" lon="7.2717">
        <ele>449.5</ele>
        <time>2014-11-01T14:13:16Z</time>
      </trkpt>
      <trkpt lat="43.94019" lon="7.27177">
        <ele>452.5</ele>
        <time>2014-11-01T14:13:19Z</time>
      </trkpt>
      <trkpt lat="43.9403" lon="7.27193">
        <ele>455.5</ele>
        <time>2014-11-01T14:13:31Z</time>
      </trkpt>
      <trkpt lat="43.94031" lon="7.27194">
        <ele>453.5</ele>
        <time>2014-11-01T14:13:32Z</time>
      </trkpt>
      <trkpt lat="43.94045" lon="7.27202">
        <ele>451.5</ele>
        <time>2014-11-01T14:13:44Z</time>
      </trkpt>
      <trkpt lat="43.94062" lon="7.27206">
        <ele>452.5</ele>
        <time>2014-11-01T14:13:59Z</time>
      </trkpt>
      <trkpt lat="43.94069" lon="7.2721">
        <ele>451.5</ele>
        <time>2014-11-01T14:14:06Z</time>
      </trkpt>
      <trkpt lat="43.94072" lon="7.27215">
        <ele>451.5</ele>
        <time>2014-11-01T14:14:09Z</time>
      </trkpt>
      <trkpt lat="43.94085" lon="7.27227">
        <ele>453.5</ele>
        <time>2014-11-01T14:14:19Z</time>
      </trkpt>
      <trkpt lat="43.94092" lon="7.27246">
        <ele>453.5</ele>
        <time>2014-11-01T14:14:30Z</time>
      </trkpt>
      <trkpt lat="43.94092" lon="7.27247">
        <ele>452.5</ele>
        <time>2014-11-01T14:14:32Z</time>
      </trkpt>
      <trkpt lat="43.94094" lon="7.2726">
        <ele>451.5</ele>
        <time>2014-11-01T14:14:39Z</time>
      </trkpt>
      <trkpt lat="43.94099" lon="7.2728">
        <ele>451.5</ele>
        <time>2014-11-01T14:14:52Z</time>
      </trkpt>
      <trkpt lat="43.941" lon="7.27301">
        <ele>447.5</ele>
        <time>2014-11-01T14:15:06Z</time>
      </trkpt>
      <trkpt lat="43.94109" lon="7.27317">
        <ele>446.5</ele>
        <time>2014-11-01T14:15:47Z</time>
      </trkpt>
      <trkpt lat="43.94112" lon="7.27339">
        <ele>450.5</ele>
        <time>2014-11-01T14:15:56Z</time>
      </trkpt>
      <trkpt lat="43.94127" lon="7.27336">
        <ele>450.5</ele>
        <time>2014-11-01T14:16:07Z</time>
      </trkpt>
      <trkpt lat="43.94143" lon="7.27336">
        <ele>447.5</ele>
        <time>2014-11-01T14:16:22Z</time>
      </trkpt>
      <trkpt lat="43.94158" lon="7.27342">
        <ele>446.5</ele>
        <time>2014-11-01T14:16:42Z</time>
      </trkpt>
      <trkpt lat="43.94174" lon="7.27346">
        <ele>454.5</ele>
        <time>2014-11-01T14:16:52Z</time>
      </trkpt>
      <trkpt lat="43.94188" lon="7.27353">
        <ele>450.5</ele>
        <time>2014-11-01T14:17:06Z</time>
      </trkpt>
      <trkpt lat="43.9419" lon="7.27353">
        <ele>449.5</ele>
        <time>2014-11-01T14:17:08Z</time>
      </trkpt>
      <trkpt lat="43.94198" lon="7.27371">
        <ele>446.5</ele>
        <time>2014-11-01T14:17:22Z</time>
      </trkpt>
      <trkpt lat="43.94201" lon="7.27389">
        <ele>449.5</ele>
        <time>2014-11-01T14:17:29Z</time>
      </trkpt>
      <trkpt lat="43.94206" lon="7.2741">
        <ele>447.5</ele>
        <time>2014-11-01T14:18:36Z</time>
      </trkpt>
      <trkpt lat="43.94195" lon="7.27423">
        <ele>443.5</ele>
        <time>2014-11-01T14:20:18Z</time>
      </trkpt>
      <trkpt lat="43.94191" lon="7.27443">
        <ele>442.5</ele>
        <time>2014-11-01T14:20:54Z</time>
      </trkpt>
      <trkpt lat="43.9418" lon="7.27457">
        <ele>440.5</ele>
        <time>2014-11-01T14:21:07Z</time>
      </trkpt>
      <trkpt lat="43.94168" lon="7.27467">
        <ele>448.5</ele>
        <time>2014-11-01T14:22:58Z</time>
      </trkpt>
      <trkpt lat="43.94159" lon="7.27487">
        <ele>441.5</ele>
        <time>2014-11-01T14:23:20Z</time>
      </trkpt>
      <trkpt lat="43.94146" lon="7.27499">
        <ele>443.5</ele>
        <time>2014-11-01T14:23:27Z</time>
      </trkpt>
      <trkpt lat="43.94146" lon="7.2752">
        <ele>448.5</ele>
        <time>2014-11-01T14:23:36Z</time>
      </trkpt>
      <trkpt lat="43.94145" lon="7.27522">
        <ele>448.5</ele>
        <time>2014-11-01T14:23:37Z</time>
      </trkpt>
      <trkpt lat="43.94144" lon="7.27528">
        <ele>443.5</ele>
        <time>2014-11-01T14:23:45Z</time>
      </trkpt>
      <trkpt lat="43.94146" lon="7.2755">
        <ele>438.5</ele>
        <time>2014-11-01T14:24:01Z</time>
      </trkpt>
      <trkpt lat="43.9415" lon="7.27555">
        <ele>438.5</ele>
        <time>2014-11-01T14:24:06Z</time>
      </trkpt>
      <trkpt lat="43.94153" lon="7.27556">
        <ele>441.5</ele>
        <time>2014-11-01T14:24:08Z</time>
      </trkpt>
      <trkpt lat="43.94163" lon="7.27572">
        <ele>438.5</ele>
        <time>2014-11-01T14:24:22Z</time>
      </trkpt>
      <trkpt lat="43.94179" lon="7.27572">
        <ele>445.5</ele>
        <time>2014-11-01T14:24:33Z</time>
      </trkpt>
      <trkpt lat="43.94192" lon="7.27581">
        <ele>446.5</ele>
        <time>2014-11-01T14:24:44Z</time>
      </trkpt>
      <trkpt lat="43.94202" lon="7.27597">
        <ele>447.5</ele>
        <time>2014-11-01T14:24:54Z</time>
      </trkpt>
      <trkpt lat="43.94211" lon="7.27616">
        <ele>448.5</ele>
        <time>2014-11-01T14:25:04Z</time>
      </trkpt>
      <trkpt lat="43.94217" lon="7.27635">
        <ele>442.5</ele>
        <time>2014-11-01T14:25:21Z</time>
      </trkpt>
      <trkpt lat="43.9421" lon="7.27655">
        <ele>437.5</ele>
        <time>2014-11-01T14:25:38Z</time>
      </trkpt>
      <trkpt lat="43.94202" lon="7.27673">
        <ele>437.5</ele>
        <time>2014-11-01T14:25:51Z</time>
      </trkpt>
      <trkpt lat="43.94195" lon="7.27692">
        <ele>434.5</ele>
        <time>2014-11-01T14:26:03Z</time>
      </trkpt>
      <trkpt lat="43.94188" lon="7.27711">
        <ele>435.5</ele>
        <time>2014-11-01T14:26:16Z</time>
      </trkpt>
      <trkpt lat="43.9419" lon="7.27731">
        <ele>433.5</ele>
        <time>2014-11-01T14:26:53Z</time>
      </trkpt>
      <trkpt lat="43.94192" lon="7.27741">
        <ele>434.5</ele>
        <time>2014-11-01T14:27:34Z</time>
      </trkpt>
      <trkpt lat="43.94198" lon="7.27761">
        <ele>437.5</ele>
        <time>2014-11-01T14:27:49Z</time>
      </trkpt>
      <trkpt lat="43.94214" lon="7.27758">
        <ele>428.5</ele>
        <time>2014-11-01T14:28:47Z</time>
      </trkpt>
      <trkpt lat="43.94211" lon="7.27779">
        <ele>411.5</ele>
        <time>2014-11-01T14:29:46Z</time>
      </trkpt>
      <trkpt lat="43.94208" lon="7.27785">
        <ele>410.5</ele>
        <time>2014-11-01T14:29:50Z</time>
      </trkpt>
      <trkpt lat="43.94212" lon="7.27804">
        <ele>404.5</ele>
        <time>2014-11-01T14:30:01Z</time>
      </trkpt>
      <trkpt lat="43.9421" lon="7.27827">
        <ele>407.5</ele>
        <time>2014-11-01T14:30:11Z</time>
      </trkpt>
      <trkpt lat="43.94208" lon="7.27829">
        <ele>409.5</ele>
        <time>2014-11-01T14:30:12Z</time>
      </trkpt>
      <trkpt lat="43.94208" lon="7.27831">
        <ele>410.5</ele>
        <time>2014-11-01T14:30:14Z</time>
      </trkpt>
      <trkpt lat="43.94206" lon="7.27854">
        <ele>413.5</ele>
        <time>2014-11-01T14:30:24Z</time>
      </trkpt>
      <trkpt lat="43.942" lon="7.27873">
        <ele>409.5</ele>
        <time>2014-11-01T14:30:44Z</time>
      </trkpt>
      <trkpt lat="43.94194" lon="7.27883">
        <ele>408.5</ele>
        <time>2014-11-01T14:30:55Z</time>
      </trkpt>
      <trkpt lat="43.94191" lon="7.27886">
        <ele>400.5</ele>
        <time>2014-11-01T14:31:04Z</time>
      </trkpt>
      <trkpt lat="43.94182" lon="7.27904">
        <ele>396.5</ele>
        <time>2014-11-01T14:31:23Z</time>
      </trkpt>
      <trkpt lat="43.94177" lon="7.2792">
        <ele>390.5</ele>
        <time>2014-11-01T14:31:37Z</time>
      </trkpt>
      <trkpt lat="43.94179" lon="7.27926">
        <ele>391.5</ele>
        <time>2014-11-01T14:31:41Z</time>
      </trkpt>
      <trkpt lat="43.94185" lon="7.27948">
        <ele>397.5</ele>
        <time>2014-11-01T14:31:52Z</time>
      </trkpt>
      <trkpt lat="43.94189" lon="7.27964">
        <ele>396.5</ele>
        <time>2014-11-01T14:32:02Z</time>
      </trkpt>
      <trkpt lat="43.94178" lon="7.27979">
        <ele>385.5</ele>
        <time>2014-11-01T14:32:18Z</time>
      </trkpt>
      <trkpt lat="43.94189" lon="7.27996">
        <ele>391.5</ele>
        <time>2014-11-01T14:32:28Z</time>
      </trkpt>
      <trkpt lat="43.94188" lon="7.28002">
        <ele>391.5</ele>
        <time>2014-11-01T14:32:32Z</time>
      </trkpt>
      <trkpt lat="43.94176" lon="7.28014">
        <ele>384.5</ele>
        <time>2014-11-01T14:32:53Z</time>
      </trkpt>
      <trkpt lat="43.94177" lon="7.28014">
        <ele>385.5</ele>
        <time>2014-11-01T14:32:54Z</time>
      </trkpt>
      <trkpt lat="43.94178" lon="7.28028">
        <ele>384.5</ele>
        <time>2014-11-01T14:33:06Z</time>
      </trkpt>
      <trkpt lat="43.94166" lon="7.28041">
        <ele>367.5</ele>
        <time>2014-11-01T14:33:37Z</time>
      </trkpt>
      <trkpt lat="43.94169" lon="7.28049">
        <ele>366.5</ele>
        <time>2014-11-01T14:33:50Z</time>
      </trkpt>
      <trkpt lat="43.94184" lon="7.28055">
        <ele>354.5</ele>
        <time>2014-11-01T14:37:52Z</time>
      </trkpt>
      <trkpt lat="43.94198" lon="7.28049">
        <ele>345.5</ele>
        <time>2014-11-01T14:38:14Z</time>
      </trkpt>
      <trkpt lat="43.94199" lon="7.2805">
        <ele>344.5</ele>
        <time>2014-11-01T14:38:15Z</time>
      </trkpt>
      <trkpt lat="43.94207" lon="7.28057">
        <ele>344.5</ele>
        <time>2014-11-01T14:38:23Z</time>
      </trkpt>
      <trkpt lat="43.94208" lon="7.28077">
        <ele>338.5</ele>
        <time>2014-11-01T14:39:02Z</time>
      </trkpt>
      <trkpt lat="43.94209" lon="7.28085">
        <ele>337.5</ele>
        <time>2014-11-01T14:39:07Z</time>
      </trkpt>
      <trkpt lat="43.9421" lon="7.28091">
        <ele>338.5</ele>
        <time>2014-11-01T14:39:17Z</time>
      </trkpt>
      <trkpt lat="43.94207" lon="7.28114">
        <ele>333.5</ele>
        <time>2014-11-01T14:41:04Z</time>
      </trkpt>
      <trkpt lat="43.94206" lon="7.28135">
        <ele>332.5</ele>
        <time>2014-11-01T14:41:12Z</time>
      </trkpt>
      <trkpt lat="43.94208" lon="7.28154">
        <ele>331.5</ele>
        <time>2014-11-01T14:41:21Z</time>
      </trkpt>
      <trkpt lat="43.94208" lon="7.28169">
        <ele>331.5</ele>
        <time>2014-11-01T14:41:32Z</time>
      </trkpt>
      <trkpt lat="43.94204" lon="7.28189">
        <ele>331.5</ele>
        <time>2014-11-01T14:41:40Z</time>
      </trkpt>
      <trkpt lat="43.94206" lon="7.28188">
        <ele>331.5</ele>
        <time>2014-11-01T14:41:41Z</time>
      </trkpt>
      <trkpt lat="43.94207" lon="7.28199">
        <ele>333.5</ele>
        <time>2014-11-01T14:41:45Z</time>
      </trkpt>
      <trkpt lat="43.94206" lon="7.28202">
        <ele>334.5</ele>
        <time>2014-11-01T14:41:46Z</time>
      </trkpt>
    </trkseg>
  </trk>
</gpx>